<?xml version="1.0" encoding="UTF-8" standalone="no" ?>
<gpx xmlns="http://www.topografix.com/GPX/1/1" xmlns:xsi="http://www.w3.org/2001/XMLSchema-instance" xsi:schemaLocation="http://www.topografix.com/GPX/1/1 http://www.topografix.com/GPX/1/1/gpx.xsd" version="1.1" creator="VisuGPX - https://www.visugpx.com">
  <metadata>
    <name>38-L-Séjour : Malleval en Vercors - 19 oct</name>
    <desc><![CDATA[38-L-Malleval en Vercors : Patente
2024-10-19
]]></desc>
  </metadata>
  <trk>
    <name><![CDATA[2024-10-19-01]]></name>
    <extensions>
      <line xmlns="http://www.topografix.com/GPX/gpx_style/0/2">
        <width>4</width>
      </line>
    </extensions>
    <trkseg>
      <trkpt lat="45.13069" lon="5.43485">
        <ele>1225.5</ele>
        <time>2024-10-19T07:43:25.000Z</time>
      </trkpt>
      <trkpt lat="45.13067" lon="5.43485">
        <ele>1225.5</ele>
        <time>2024-10-19T07:43:26.000Z</time>
      </trkpt>
      <trkpt lat="45.13058" lon="5.43482">
        <ele>1225.5</ele>
        <time>2024-10-19T07:43:38.000Z</time>
      </trkpt>
      <trkpt lat="45.13049" lon="5.43484">
        <ele>1225</ele>
        <time>2024-10-19T07:44:01.000Z</time>
      </trkpt>
      <trkpt lat="45.1304" lon="5.43489">
        <ele>1224.9</ele>
        <time>2024-10-19T07:44:11.000Z</time>
      </trkpt>
      <trkpt lat="45.13031" lon="5.43493">
        <ele>1224.6</ele>
        <time>2024-10-19T07:44:28.000Z</time>
      </trkpt>
      <trkpt lat="45.13022" lon="5.43498">
        <ele>1224.4</ele>
        <time>2024-10-19T07:44:41.000Z</time>
      </trkpt>
      <trkpt lat="45.13012" lon="5.43501">
        <ele>1224.4</ele>
        <time>2024-10-19T07:44:54.000Z</time>
      </trkpt>
      <trkpt lat="45.13003" lon="5.43504">
        <ele>1224.1</ele>
        <time>2024-10-19T07:45:06.000Z</time>
      </trkpt>
      <trkpt lat="45.12994" lon="5.43507">
        <ele>1224.2</ele>
        <time>2024-10-19T07:45:18.000Z</time>
      </trkpt>
      <trkpt lat="45.12985" lon="5.43511">
        <ele>1224.3</ele>
        <time>2024-10-19T07:45:28.000Z</time>
      </trkpt>
      <trkpt lat="45.12976" lon="5.43516">
        <ele>1224.2</ele>
        <time>2024-10-19T07:45:40.000Z</time>
      </trkpt>
      <trkpt lat="45.12967" lon="5.4352">
        <ele>1223.3</ele>
        <time>2024-10-19T07:45:52.000Z</time>
      </trkpt>
      <trkpt lat="45.12959" lon="5.43525">
        <ele>1224.1</ele>
        <time>2024-10-19T07:46:09.000Z</time>
      </trkpt>
      <trkpt lat="45.1295" lon="5.4353">
        <ele>1224.4</ele>
        <time>2024-10-19T07:46:20.000Z</time>
      </trkpt>
      <trkpt lat="45.1294" lon="5.43532">
        <ele>1224.5</ele>
        <time>2024-10-19T07:46:28.000Z</time>
      </trkpt>
      <trkpt lat="45.12931" lon="5.43532">
        <ele>1224.6</ele>
        <time>2024-10-19T07:46:41.000Z</time>
      </trkpt>
      <trkpt lat="45.12922" lon="5.43526">
        <ele>1224.7</ele>
        <time>2024-10-19T07:46:51.000Z</time>
      </trkpt>
      <trkpt lat="45.12915" lon="5.43518">
        <ele>1224.8</ele>
        <time>2024-10-19T07:47:02.000Z</time>
      </trkpt>
      <trkpt lat="45.12908" lon="5.4351">
        <ele>1225.4</ele>
        <time>2024-10-19T07:47:10.000Z</time>
      </trkpt>
      <trkpt lat="45.129" lon="5.43504">
        <ele>1226.1</ele>
        <time>2024-10-19T07:47:18.000Z</time>
      </trkpt>
      <trkpt lat="45.12891" lon="5.43504">
        <ele>1226.9</ele>
        <time>2024-10-19T07:47:29.000Z</time>
      </trkpt>
      <trkpt lat="45.12882" lon="5.43502">
        <ele>1227.2</ele>
        <time>2024-10-19T07:47:44.000Z</time>
      </trkpt>
      <trkpt lat="45.12873" lon="5.43508">
        <ele>1227.5</ele>
        <time>2024-10-19T07:47:55.000Z</time>
      </trkpt>
      <trkpt lat="45.12866" lon="5.43517">
        <ele>1228.2</ele>
        <time>2024-10-19T07:48:08.000Z</time>
      </trkpt>
      <trkpt lat="45.12857" lon="5.43517">
        <ele>1228.4</ele>
        <time>2024-10-19T07:48:17.000Z</time>
      </trkpt>
      <trkpt lat="45.12846" lon="5.4352">
        <ele>1229.1</ele>
        <time>2024-10-19T07:48:28.000Z</time>
      </trkpt>
      <trkpt lat="45.12837" lon="5.43519">
        <ele>1229.8</ele>
        <time>2024-10-19T07:48:41.000Z</time>
      </trkpt>
      <trkpt lat="45.12828" lon="5.43521">
        <ele>1231.3</ele>
        <time>2024-10-19T07:48:57.000Z</time>
      </trkpt>
      <trkpt lat="45.12818" lon="5.43526">
        <ele>1232.9</ele>
        <time>2024-10-19T07:49:09.000Z</time>
      </trkpt>
      <trkpt lat="45.1281" lon="5.43532">
        <ele>1235.8</ele>
        <time>2024-10-19T07:49:35.000Z</time>
      </trkpt>
      <trkpt lat="45.12802" lon="5.43537">
        <ele>1236.8</ele>
        <time>2024-10-19T07:49:51.000Z</time>
      </trkpt>
      <trkpt lat="45.12795" lon="5.43545">
        <ele>1237.7</ele>
        <time>2024-10-19T07:50:07.000Z</time>
      </trkpt>
      <trkpt lat="45.12785" lon="5.4355">
        <ele>1238.4</ele>
        <time>2024-10-19T07:51:35.000Z</time>
      </trkpt>
      <trkpt lat="45.12776" lon="5.43556">
        <ele>1240.4</ele>
        <time>2024-10-19T07:51:54.000Z</time>
      </trkpt>
      <trkpt lat="45.12768" lon="5.43563">
        <ele>1241.7</ele>
        <time>2024-10-19T07:52:05.000Z</time>
      </trkpt>
      <trkpt lat="45.12758" lon="5.43564">
        <ele>1242.4</ele>
        <time>2024-10-19T07:52:14.000Z</time>
      </trkpt>
      <trkpt lat="45.1275" lon="5.43571">
        <ele>1243</ele>
        <time>2024-10-19T07:52:20.000Z</time>
      </trkpt>
      <trkpt lat="45.12742" lon="5.43577">
        <ele>1244.4</ele>
        <time>2024-10-19T07:52:34.000Z</time>
      </trkpt>
      <trkpt lat="45.12733" lon="5.43576">
        <ele>1247.2</ele>
        <time>2024-10-19T07:52:56.000Z</time>
      </trkpt>
      <trkpt lat="45.12727" lon="5.43587">
        <ele>1249.2</ele>
        <time>2024-10-19T07:53:14.000Z</time>
      </trkpt>
      <trkpt lat="45.12726" lon="5.43599">
        <ele>1250.7</ele>
        <time>2024-10-19T07:53:28.000Z</time>
      </trkpt>
      <trkpt lat="45.12724" lon="5.43612">
        <ele>1253.4</ele>
        <time>2024-10-19T07:53:47.000Z</time>
      </trkpt>
      <trkpt lat="45.12717" lon="5.43622">
        <ele>1254.8</ele>
        <time>2024-10-19T07:54:00.000Z</time>
      </trkpt>
      <trkpt lat="45.12716" lon="5.43636">
        <ele>1255.7</ele>
        <time>2024-10-19T07:54:12.000Z</time>
      </trkpt>
      <trkpt lat="45.12715" lon="5.43649">
        <ele>1257.1</ele>
        <time>2024-10-19T07:54:28.000Z</time>
      </trkpt>
      <trkpt lat="45.12711" lon="5.4366">
        <ele>1257.6</ele>
        <time>2024-10-19T07:54:47.000Z</time>
      </trkpt>
      <trkpt lat="45.12708" lon="5.43673">
        <ele>1257.9</ele>
        <time>2024-10-19T07:55:00.000Z</time>
      </trkpt>
      <trkpt lat="45.12708" lon="5.43686">
        <ele>1258.4</ele>
        <time>2024-10-19T07:55:19.000Z</time>
      </trkpt>
      <trkpt lat="45.12709" lon="5.43699">
        <ele>1258.8</ele>
        <time>2024-10-19T07:56:01.000Z</time>
      </trkpt>
      <trkpt lat="45.12718" lon="5.43703">
        <ele>1259.6</ele>
        <time>2024-10-19T07:58:42.000Z</time>
      </trkpt>
      <trkpt lat="45.12717" lon="5.43716">
        <ele>1259.7</ele>
        <time>2024-10-19T07:59:36.000Z</time>
      </trkpt>
      <trkpt lat="45.12724" lon="5.43724">
        <ele>1260</ele>
        <time>2024-10-19T07:59:49.000Z</time>
      </trkpt>
      <trkpt lat="45.12729" lon="5.43735">
        <ele>1261.1</ele>
        <time>2024-10-19T08:00:01.000Z</time>
      </trkpt>
      <trkpt lat="45.12734" lon="5.43746">
        <ele>1262.8</ele>
        <time>2024-10-19T08:00:14.000Z</time>
      </trkpt>
      <trkpt lat="45.1274" lon="5.43756">
        <ele>1264.2</ele>
        <time>2024-10-19T08:00:26.000Z</time>
      </trkpt>
      <trkpt lat="45.12746" lon="5.43766">
        <ele>1266</ele>
        <time>2024-10-19T08:00:43.000Z</time>
      </trkpt>
      <trkpt lat="45.12755" lon="5.43773">
        <ele>1268.2</ele>
        <time>2024-10-19T08:01:00.000Z</time>
      </trkpt>
      <trkpt lat="45.12764" lon="5.43774">
        <ele>1269.9</ele>
        <time>2024-10-19T08:01:14.000Z</time>
      </trkpt>
      <trkpt lat="45.12773" lon="5.4378">
        <ele>1271.9</ele>
        <time>2024-10-19T08:01:30.000Z</time>
      </trkpt>
      <trkpt lat="45.12781" lon="5.43787">
        <ele>1273.6</ele>
        <time>2024-10-19T08:01:42.000Z</time>
      </trkpt>
      <trkpt lat="45.12781" lon="5.438">
        <ele>1275.8</ele>
        <time>2024-10-19T08:01:57.000Z</time>
      </trkpt>
      <trkpt lat="45.12778" lon="5.43812">
        <ele>1277.2</ele>
        <time>2024-10-19T08:02:12.000Z</time>
      </trkpt>
      <trkpt lat="45.12776" lon="5.43825">
        <ele>1279</ele>
        <time>2024-10-19T08:02:27.000Z</time>
      </trkpt>
      <trkpt lat="45.12769" lon="5.43836">
        <ele>1280.6</ele>
        <time>2024-10-19T08:02:41.000Z</time>
      </trkpt>
      <trkpt lat="45.12762" lon="5.43844">
        <ele>1282.1</ele>
        <time>2024-10-19T08:02:56.000Z</time>
      </trkpt>
      <trkpt lat="45.12757" lon="5.43854">
        <ele>1283.2</ele>
        <time>2024-10-19T08:03:08.000Z</time>
      </trkpt>
      <trkpt lat="45.12754" lon="5.43867">
        <ele>1284</ele>
        <time>2024-10-19T08:03:23.000Z</time>
      </trkpt>
      <trkpt lat="45.12755" lon="5.43879">
        <ele>1286.6</ele>
        <time>2024-10-19T08:03:47.000Z</time>
      </trkpt>
      <trkpt lat="45.12757" lon="5.43892">
        <ele>1289.4</ele>
        <time>2024-10-19T08:04:06.000Z</time>
      </trkpt>
      <trkpt lat="45.12756" lon="5.43905">
        <ele>1291.6</ele>
        <time>2024-10-19T08:04:30.000Z</time>
      </trkpt>
      <trkpt lat="45.12753" lon="5.43918">
        <ele>1292.9</ele>
        <time>2024-10-19T08:04:52.000Z</time>
      </trkpt>
      <trkpt lat="45.12755" lon="5.43931">
        <ele>1294.2</ele>
        <time>2024-10-19T08:05:04.000Z</time>
      </trkpt>
      <trkpt lat="45.12751" lon="5.43944">
        <ele>1296</ele>
        <time>2024-10-19T08:05:23.000Z</time>
      </trkpt>
      <trkpt lat="45.12751" lon="5.43957">
        <ele>1296.5</ele>
        <time>2024-10-19T08:09:15.000Z</time>
      </trkpt>
      <trkpt lat="45.12747" lon="5.43969">
        <ele>1296</ele>
        <time>2024-10-19T08:09:33.000Z</time>
      </trkpt>
      <trkpt lat="45.12745" lon="5.43982">
        <ele>1295.3</ele>
        <time>2024-10-19T08:09:44.000Z</time>
      </trkpt>
      <trkpt lat="45.12742" lon="5.43994">
        <ele>1295</ele>
        <time>2024-10-19T08:09:54.000Z</time>
      </trkpt>
      <trkpt lat="45.12739" lon="5.44007">
        <ele>1294.8</ele>
        <time>2024-10-19T08:10:06.000Z</time>
      </trkpt>
      <trkpt lat="45.12734" lon="5.44018">
        <ele>1294.8</ele>
        <time>2024-10-19T08:10:35.000Z</time>
      </trkpt>
      <trkpt lat="45.12736" lon="5.44031">
        <ele>1295</ele>
        <time>2024-10-19T08:10:54.000Z</time>
      </trkpt>
      <trkpt lat="45.12743" lon="5.44038">
        <ele>1295.3</ele>
        <time>2024-10-19T08:11:51.000Z</time>
      </trkpt>
      <trkpt lat="45.12749" lon="5.44048">
        <ele>1295.5</ele>
        <time>2024-10-19T08:12:07.000Z</time>
      </trkpt>
      <trkpt lat="45.12757" lon="5.44053">
        <ele>1295.6</ele>
        <time>2024-10-19T08:12:18.000Z</time>
      </trkpt>
      <trkpt lat="45.12761" lon="5.44065">
        <ele>1294.7</ele>
        <time>2024-10-19T08:12:40.000Z</time>
      </trkpt>
      <trkpt lat="45.12768" lon="5.44072">
        <ele>1294.3</ele>
        <time>2024-10-19T08:12:53.000Z</time>
      </trkpt>
      <trkpt lat="45.12774" lon="5.44083">
        <ele>1293.8</ele>
        <time>2024-10-19T08:13:04.000Z</time>
      </trkpt>
      <trkpt lat="45.12779" lon="5.44095">
        <ele>1293.4</ele>
        <time>2024-10-19T08:13:16.000Z</time>
      </trkpt>
      <trkpt lat="45.12783" lon="5.44107">
        <ele>1293.5</ele>
        <time>2024-10-19T08:13:31.000Z</time>
      </trkpt>
      <trkpt lat="45.12792" lon="5.44113">
        <ele>1293.9</ele>
        <time>2024-10-19T08:13:45.000Z</time>
      </trkpt>
      <trkpt lat="45.12794" lon="5.44127">
        <ele>1294.5</ele>
        <time>2024-10-19T08:13:59.000Z</time>
      </trkpt>
      <trkpt lat="45.128" lon="5.44137">
        <ele>1294.7</ele>
        <time>2024-10-19T08:14:10.000Z</time>
      </trkpt>
      <trkpt lat="45.12797" lon="5.4415">
        <ele>1294.5</ele>
        <time>2024-10-19T08:14:22.000Z</time>
      </trkpt>
      <trkpt lat="45.12794" lon="5.44163">
        <ele>1294</ele>
        <time>2024-10-19T08:14:34.000Z</time>
      </trkpt>
      <trkpt lat="45.12796" lon="5.44176">
        <ele>1294.1</ele>
        <time>2024-10-19T08:14:45.000Z</time>
      </trkpt>
      <trkpt lat="45.12795" lon="5.44189">
        <ele>1294.7</ele>
        <time>2024-10-19T08:14:55.000Z</time>
      </trkpt>
      <trkpt lat="45.12792" lon="5.44202">
        <ele>1295.9</ele>
        <time>2024-10-19T08:15:06.000Z</time>
      </trkpt>
      <trkpt lat="45.12794" lon="5.44215">
        <ele>1296.8</ele>
        <time>2024-10-19T08:15:17.000Z</time>
      </trkpt>
      <trkpt lat="45.12799" lon="5.44227">
        <ele>1297.8</ele>
        <time>2024-10-19T08:15:28.000Z</time>
      </trkpt>
      <trkpt lat="45.12799" lon="5.4424">
        <ele>1299.3</ele>
        <time>2024-10-19T08:15:53.000Z</time>
      </trkpt>
      <trkpt lat="45.12808" lon="5.44245">
        <ele>1299.8</ele>
        <time>2024-10-19T08:16:05.000Z</time>
      </trkpt>
      <trkpt lat="45.12817" lon="5.44248">
        <ele>1300.1</ele>
        <time>2024-10-19T08:16:16.000Z</time>
      </trkpt>
      <trkpt lat="45.12826" lon="5.44253">
        <ele>1301</ele>
        <time>2024-10-19T08:16:34.000Z</time>
      </trkpt>
      <trkpt lat="45.12836" lon="5.44255">
        <ele>1302.1</ele>
        <time>2024-10-19T08:16:48.000Z</time>
      </trkpt>
      <trkpt lat="45.12845" lon="5.44258">
        <ele>1302.9</ele>
        <time>2024-10-19T08:16:57.000Z</time>
      </trkpt>
      <trkpt lat="45.12854" lon="5.44263">
        <ele>1304.1</ele>
        <time>2024-10-19T08:17:11.000Z</time>
      </trkpt>
      <trkpt lat="45.12863" lon="5.44266">
        <ele>1304.9</ele>
        <time>2024-10-19T08:17:20.000Z</time>
      </trkpt>
      <trkpt lat="45.12872" lon="5.4427">
        <ele>1305.7</ele>
        <time>2024-10-19T08:17:31.000Z</time>
      </trkpt>
      <trkpt lat="45.1288" lon="5.44279">
        <ele>1305.9</ele>
        <time>2024-10-19T08:17:45.000Z</time>
      </trkpt>
      <trkpt lat="45.12888" lon="5.44285">
        <ele>1305.8</ele>
        <time>2024-10-19T08:17:54.000Z</time>
      </trkpt>
      <trkpt lat="45.12894" lon="5.44295">
        <ele>1306.2</ele>
        <time>2024-10-19T08:18:05.000Z</time>
      </trkpt>
      <trkpt lat="45.12899" lon="5.44307">
        <ele>1306.9</ele>
        <time>2024-10-19T08:18:18.000Z</time>
      </trkpt>
      <trkpt lat="45.12903" lon="5.44319">
        <ele>1307.8</ele>
        <time>2024-10-19T08:18:33.000Z</time>
      </trkpt>
      <trkpt lat="45.12909" lon="5.44329">
        <ele>1308.5</ele>
        <time>2024-10-19T08:18:44.000Z</time>
      </trkpt>
      <trkpt lat="45.12917" lon="5.44335">
        <ele>1309.2</ele>
        <time>2024-10-19T08:18:55.000Z</time>
      </trkpt>
      <trkpt lat="45.12924" lon="5.44344">
        <ele>1310.4</ele>
        <time>2024-10-19T08:19:07.000Z</time>
      </trkpt>
      <trkpt lat="45.1293" lon="5.44353">
        <ele>1311.1</ele>
        <time>2024-10-19T08:19:18.000Z</time>
      </trkpt>
      <trkpt lat="45.12936" lon="5.44364">
        <ele>1311.7</ele>
        <time>2024-10-19T08:19:31.000Z</time>
      </trkpt>
      <trkpt lat="45.12942" lon="5.44374">
        <ele>1312.4</ele>
        <time>2024-10-19T08:19:44.000Z</time>
      </trkpt>
      <trkpt lat="45.12947" lon="5.44386">
        <ele>1313.5</ele>
        <time>2024-10-19T08:19:57.000Z</time>
      </trkpt>
      <trkpt lat="45.1295" lon="5.44398">
        <ele>1314.5</ele>
        <time>2024-10-19T08:20:08.000Z</time>
      </trkpt>
      <trkpt lat="45.12951" lon="5.44412">
        <ele>1315.3</ele>
        <time>2024-10-19T08:20:27.000Z</time>
      </trkpt>
      <trkpt lat="45.12958" lon="5.44421">
        <ele>1316.4</ele>
        <time>2024-10-19T08:20:38.000Z</time>
      </trkpt>
      <trkpt lat="45.12963" lon="5.44432">
        <ele>1317.2</ele>
        <time>2024-10-19T08:20:47.000Z</time>
      </trkpt>
      <trkpt lat="45.12965" lon="5.44445">
        <ele>1318.7</ele>
        <time>2024-10-19T08:21:00.000Z</time>
      </trkpt>
      <trkpt lat="45.12972" lon="5.44454">
        <ele>1320.2</ele>
        <time>2024-10-19T08:21:12.000Z</time>
      </trkpt>
      <trkpt lat="45.12977" lon="5.44464">
        <ele>1321.9</ele>
        <time>2024-10-19T08:21:27.000Z</time>
      </trkpt>
      <trkpt lat="45.12985" lon="5.44472">
        <ele>1323.3</ele>
        <time>2024-10-19T08:21:43.000Z</time>
      </trkpt>
      <trkpt lat="45.1299" lon="5.44483">
        <ele>1325.1</ele>
        <time>2024-10-19T08:21:59.000Z</time>
      </trkpt>
      <trkpt lat="45.12995" lon="5.44494">
        <ele>1327.9</ele>
        <time>2024-10-19T08:22:21.000Z</time>
      </trkpt>
      <trkpt lat="45.13001" lon="5.44504">
        <ele>1329.8</ele>
        <time>2024-10-19T08:22:41.000Z</time>
      </trkpt>
      <trkpt lat="45.13007" lon="5.44513">
        <ele>1331.4</ele>
        <time>2024-10-19T08:22:58.000Z</time>
      </trkpt>
      <trkpt lat="45.13015" lon="5.44518">
        <ele>1332.3</ele>
        <time>2024-10-19T08:23:18.000Z</time>
      </trkpt>
      <trkpt lat="45.13021" lon="5.44528">
        <ele>1332.8</ele>
        <time>2024-10-19T08:26:20.000Z</time>
      </trkpt>
      <trkpt lat="45.13019" lon="5.44516">
        <ele>1332.7</ele>
        <time>2024-10-19T08:27:36.000Z</time>
      </trkpt>
      <trkpt lat="45.13021" lon="5.44528">
        <ele>1333.1</ele>
        <time>2024-10-19T08:28:38.000Z</time>
      </trkpt>
      <trkpt lat="45.13023" lon="5.44542">
        <ele>1335.5</ele>
        <time>2024-10-19T08:29:00.000Z</time>
      </trkpt>
      <trkpt lat="45.1303" lon="5.44551">
        <ele>1338</ele>
        <time>2024-10-19T08:29:17.000Z</time>
      </trkpt>
      <trkpt lat="45.13035" lon="5.44562">
        <ele>1339.7</ele>
        <time>2024-10-19T08:29:34.000Z</time>
      </trkpt>
      <trkpt lat="45.13042" lon="5.44573">
        <ele>1342.5</ele>
        <time>2024-10-19T08:29:56.000Z</time>
      </trkpt>
      <trkpt lat="45.13047" lon="5.44584">
        <ele>1345</ele>
        <time>2024-10-19T08:30:13.000Z</time>
      </trkpt>
      <trkpt lat="45.13051" lon="5.44596">
        <ele>1347.5</ele>
        <time>2024-10-19T08:30:35.000Z</time>
      </trkpt>
      <trkpt lat="45.13057" lon="5.44606">
        <ele>1351</ele>
        <time>2024-10-19T08:30:59.000Z</time>
      </trkpt>
      <trkpt lat="45.13061" lon="5.44618">
        <ele>1355.3</ele>
        <time>2024-10-19T08:31:49.000Z</time>
      </trkpt>
      <trkpt lat="45.13066" lon="5.4463">
        <ele>1357.3</ele>
        <time>2024-10-19T08:32:06.000Z</time>
      </trkpt>
      <trkpt lat="45.13072" lon="5.4464">
        <ele>1359.4</ele>
        <time>2024-10-19T08:32:23.000Z</time>
      </trkpt>
      <trkpt lat="45.13073" lon="5.44653">
        <ele>1360.8</ele>
        <time>2024-10-19T08:33:08.000Z</time>
      </trkpt>
      <trkpt lat="45.13074" lon="5.44666">
        <ele>1360.9</ele>
        <time>2024-10-19T08:33:33.000Z</time>
      </trkpt>
      <trkpt lat="45.13077" lon="5.44678">
        <ele>1360.8</ele>
        <time>2024-10-19T08:33:47.000Z</time>
      </trkpt>
      <trkpt lat="45.13079" lon="5.44692">
        <ele>1359.9</ele>
        <time>2024-10-19T08:34:08.000Z</time>
      </trkpt>
      <trkpt lat="45.13079" lon="5.44706">
        <ele>1360.1</ele>
        <time>2024-10-19T08:34:23.000Z</time>
      </trkpt>
      <trkpt lat="45.13085" lon="5.44716">
        <ele>1361</ele>
        <time>2024-10-19T08:35:02.000Z</time>
      </trkpt>
      <trkpt lat="45.13085" lon="5.44729">
        <ele>1362.4</ele>
        <time>2024-10-19T08:35:45.000Z</time>
      </trkpt>
      <trkpt lat="45.13084" lon="5.44743">
        <ele>1361.5</ele>
        <time>2024-10-19T08:36:26.000Z</time>
      </trkpt>
      <trkpt lat="45.13089" lon="5.44753">
        <ele>1361.7</ele>
        <time>2024-10-19T08:36:44.000Z</time>
      </trkpt>
      <trkpt lat="45.13097" lon="5.4476">
        <ele>1361.8</ele>
        <time>2024-10-19T08:37:09.000Z</time>
      </trkpt>
      <trkpt lat="45.13101" lon="5.44772">
        <ele>1361.7</ele>
        <time>2024-10-19T08:37:21.000Z</time>
      </trkpt>
      <trkpt lat="45.13107" lon="5.44783">
        <ele>1361.9</ele>
        <time>2024-10-19T08:37:34.000Z</time>
      </trkpt>
      <trkpt lat="45.1311" lon="5.44795">
        <ele>1362.3</ele>
        <time>2024-10-19T08:37:45.000Z</time>
      </trkpt>
      <trkpt lat="45.13116" lon="5.44807">
        <ele>1362.7</ele>
        <time>2024-10-19T08:37:56.000Z</time>
      </trkpt>
      <trkpt lat="45.13116" lon="5.44821">
        <ele>1362.9</ele>
        <time>2024-10-19T08:38:09.000Z</time>
      </trkpt>
      <trkpt lat="45.13115" lon="5.44835">
        <ele>1363.1</ele>
        <time>2024-10-19T08:38:20.000Z</time>
      </trkpt>
      <trkpt lat="45.13117" lon="5.44848">
        <ele>1362.9</ele>
        <time>2024-10-19T08:38:30.000Z</time>
      </trkpt>
      <trkpt lat="45.13117" lon="5.44861">
        <ele>1362.4</ele>
        <time>2024-10-19T08:38:40.000Z</time>
      </trkpt>
      <trkpt lat="45.13116" lon="5.44875">
        <ele>1361.8</ele>
        <time>2024-10-19T08:38:49.000Z</time>
      </trkpt>
      <trkpt lat="45.13114" lon="5.44888">
        <ele>1361.3</ele>
        <time>2024-10-19T08:38:59.000Z</time>
      </trkpt>
      <trkpt lat="45.13113" lon="5.44901">
        <ele>1360.9</ele>
        <time>2024-10-19T08:39:12.000Z</time>
      </trkpt>
      <trkpt lat="45.1311" lon="5.44913">
        <ele>1361.3</ele>
        <time>2024-10-19T08:39:23.000Z</time>
      </trkpt>
      <trkpt lat="45.13103" lon="5.44923">
        <ele>1362.7</ele>
        <time>2024-10-19T08:39:36.000Z</time>
      </trkpt>
      <trkpt lat="45.13094" lon="5.44926">
        <ele>1364.3</ele>
        <time>2024-10-19T08:39:52.000Z</time>
      </trkpt>
      <trkpt lat="45.13086" lon="5.44933">
        <ele>1366.3</ele>
        <time>2024-10-19T08:40:09.000Z</time>
      </trkpt>
      <trkpt lat="45.1308" lon="5.44943">
        <ele>1366.9</ele>
        <time>2024-10-19T08:40:22.000Z</time>
      </trkpt>
      <trkpt lat="45.13075" lon="5.44954">
        <ele>1367.5</ele>
        <time>2024-10-19T08:40:35.000Z</time>
      </trkpt>
      <trkpt lat="45.13074" lon="5.44967">
        <ele>1367.8</ele>
        <time>2024-10-19T08:40:50.000Z</time>
      </trkpt>
      <trkpt lat="45.1307" lon="5.44979">
        <ele>1368.7</ele>
        <time>2024-10-19T08:41:03.000Z</time>
      </trkpt>
      <trkpt lat="45.13067" lon="5.44992">
        <ele>1369</ele>
        <time>2024-10-19T08:41:13.000Z</time>
      </trkpt>
      <trkpt lat="45.13065" lon="5.45004">
        <ele>1369.4</ele>
        <time>2024-10-19T08:41:23.000Z</time>
      </trkpt>
      <trkpt lat="45.13064" lon="5.45017">
        <ele>1369.7</ele>
        <time>2024-10-19T08:41:38.000Z</time>
      </trkpt>
      <trkpt lat="45.13059" lon="5.45028">
        <ele>1369.5</ele>
        <time>2024-10-19T08:41:49.000Z</time>
      </trkpt>
      <trkpt lat="45.13057" lon="5.45042">
        <ele>1369.1</ele>
        <time>2024-10-19T08:42:08.000Z</time>
      </trkpt>
      <trkpt lat="45.13057" lon="5.45055">
        <ele>1369.2</ele>
        <time>2024-10-19T08:42:26.000Z</time>
      </trkpt>
      <trkpt lat="45.13058" lon="5.45068">
        <ele>1369</ele>
        <time>2024-10-19T08:42:37.000Z</time>
      </trkpt>
      <trkpt lat="45.13062" lon="5.4508">
        <ele>1369.1</ele>
        <time>2024-10-19T08:42:47.000Z</time>
      </trkpt>
      <trkpt lat="45.13068" lon="5.45091">
        <ele>1368.6</ele>
        <time>2024-10-19T08:42:57.000Z</time>
      </trkpt>
      <trkpt lat="45.13073" lon="5.45103">
        <ele>1368.3</ele>
        <time>2024-10-19T08:43:09.000Z</time>
      </trkpt>
      <trkpt lat="45.13078" lon="5.45113">
        <ele>1368.5</ele>
        <time>2024-10-19T08:43:18.000Z</time>
      </trkpt>
      <trkpt lat="45.13084" lon="5.45123">
        <ele>1368.3</ele>
        <time>2024-10-19T08:43:27.000Z</time>
      </trkpt>
      <trkpt lat="45.13089" lon="5.45134">
        <ele>1367.9</ele>
        <time>2024-10-19T08:43:37.000Z</time>
      </trkpt>
      <trkpt lat="45.13096" lon="5.45143">
        <ele>1367.8</ele>
        <time>2024-10-19T08:43:50.000Z</time>
      </trkpt>
      <trkpt lat="45.13105" lon="5.45147">
        <ele>1367.8</ele>
        <time>2024-10-19T08:44:23.000Z</time>
      </trkpt>
      <trkpt lat="45.13096" lon="5.45143">
        <ele>1370.5</ele>
        <time>2024-10-19T08:46:25.000Z</time>
      </trkpt>
      <trkpt lat="45.13086" lon="5.45144">
        <ele>1371</ele>
        <time>2024-10-19T08:46:36.000Z</time>
      </trkpt>
      <trkpt lat="45.13077" lon="5.45145">
        <ele>1371.8</ele>
        <time>2024-10-19T08:46:58.000Z</time>
      </trkpt>
      <trkpt lat="45.13067" lon="5.45147">
        <ele>1372</ele>
        <time>2024-10-19T08:47:09.000Z</time>
      </trkpt>
      <trkpt lat="45.13058" lon="5.45147">
        <ele>1372</ele>
        <time>2024-10-19T08:47:21.000Z</time>
      </trkpt>
      <trkpt lat="45.13049" lon="5.45148">
        <ele>1372.1</ele>
        <time>2024-10-19T08:47:30.000Z</time>
      </trkpt>
      <trkpt lat="45.13039" lon="5.45146">
        <ele>1372.4</ele>
        <time>2024-10-19T08:47:40.000Z</time>
      </trkpt>
      <trkpt lat="45.1303" lon="5.45141">
        <ele>1372</ele>
        <time>2024-10-19T08:47:50.000Z</time>
      </trkpt>
      <trkpt lat="45.13023" lon="5.45133">
        <ele>1371.5</ele>
        <time>2024-10-19T08:48:02.000Z</time>
      </trkpt>
      <trkpt lat="45.13015" lon="5.45125">
        <ele>1372.1</ele>
        <time>2024-10-19T08:48:13.000Z</time>
      </trkpt>
      <trkpt lat="45.13008" lon="5.45118">
        <ele>1371.9</ele>
        <time>2024-10-19T08:48:21.000Z</time>
      </trkpt>
      <trkpt lat="45.12999" lon="5.45114">
        <ele>1371.7</ele>
        <time>2024-10-19T08:48:30.000Z</time>
      </trkpt>
      <trkpt lat="45.12989" lon="5.45113">
        <ele>1371.6</ele>
        <time>2024-10-19T08:48:42.000Z</time>
      </trkpt>
      <trkpt lat="45.1298" lon="5.45113">
        <ele>1372.3</ele>
        <time>2024-10-19T08:48:52.000Z</time>
      </trkpt>
      <trkpt lat="45.1297" lon="5.45111">
        <ele>1372.9</ele>
        <time>2024-10-19T08:49:03.000Z</time>
      </trkpt>
      <trkpt lat="45.12961" lon="5.45105">
        <ele>1373.3</ele>
        <time>2024-10-19T08:49:13.000Z</time>
      </trkpt>
      <trkpt lat="45.12953" lon="5.45097">
        <ele>1373.9</ele>
        <time>2024-10-19T08:49:23.000Z</time>
      </trkpt>
      <trkpt lat="45.12947" lon="5.45087">
        <ele>1374</ele>
        <time>2024-10-19T08:49:34.000Z</time>
      </trkpt>
      <trkpt lat="45.1294" lon="5.45078">
        <ele>1374</ele>
        <time>2024-10-19T08:49:43.000Z</time>
      </trkpt>
      <trkpt lat="45.12934" lon="5.45067">
        <ele>1374.6</ele>
        <time>2024-10-19T08:49:52.000Z</time>
      </trkpt>
      <trkpt lat="45.12927" lon="5.45058">
        <ele>1375</ele>
        <time>2024-10-19T08:50:02.000Z</time>
      </trkpt>
      <trkpt lat="45.12922" lon="5.45048">
        <ele>1375.6</ele>
        <time>2024-10-19T08:50:15.000Z</time>
      </trkpt>
      <trkpt lat="45.12914" lon="5.45039">
        <ele>1383.7</ele>
        <time>2024-10-19T08:53:21.000Z</time>
      </trkpt>
      <trkpt lat="45.12907" lon="5.45029">
        <ele>1384.5</ele>
        <time>2024-10-19T08:53:36.000Z</time>
      </trkpt>
      <trkpt lat="45.12902" lon="5.45018">
        <ele>1385</ele>
        <time>2024-10-19T08:53:46.000Z</time>
      </trkpt>
      <trkpt lat="45.12896" lon="5.45008">
        <ele>1385.4</ele>
        <time>2024-10-19T08:53:55.000Z</time>
      </trkpt>
      <trkpt lat="45.1289" lon="5.44996">
        <ele>1385.9</ele>
        <time>2024-10-19T08:54:04.000Z</time>
      </trkpt>
      <trkpt lat="45.12885" lon="5.44984">
        <ele>1386.4</ele>
        <time>2024-10-19T08:54:12.000Z</time>
      </trkpt>
      <trkpt lat="45.12879" lon="5.44972">
        <ele>1387.1</ele>
        <time>2024-10-19T08:54:21.000Z</time>
      </trkpt>
      <trkpt lat="45.12873" lon="5.44962">
        <ele>1387.7</ele>
        <time>2024-10-19T08:54:32.000Z</time>
      </trkpt>
      <trkpt lat="45.12866" lon="5.44955">
        <ele>1387.9</ele>
        <time>2024-10-19T08:54:41.000Z</time>
      </trkpt>
      <trkpt lat="45.12856" lon="5.44948">
        <ele>1387</ele>
        <time>2024-10-19T08:54:53.000Z</time>
      </trkpt>
      <trkpt lat="45.12848" lon="5.44942">
        <ele>1388</ele>
        <time>2024-10-19T08:55:02.000Z</time>
      </trkpt>
      <trkpt lat="45.12839" lon="5.44935">
        <ele>1387.8</ele>
        <time>2024-10-19T08:55:11.000Z</time>
      </trkpt>
      <trkpt lat="45.1283" lon="5.44929">
        <ele>1387.4</ele>
        <time>2024-10-19T08:55:18.000Z</time>
      </trkpt>
      <trkpt lat="45.12821" lon="5.44924">
        <ele>1387.2</ele>
        <time>2024-10-19T08:55:26.000Z</time>
      </trkpt>
      <trkpt lat="45.12812" lon="5.44921">
        <ele>1387.6</ele>
        <time>2024-10-19T08:55:34.000Z</time>
      </trkpt>
      <trkpt lat="45.12803" lon="5.44919">
        <ele>1387.9</ele>
        <time>2024-10-19T08:55:44.000Z</time>
      </trkpt>
      <trkpt lat="45.12792" lon="5.44918">
        <ele>1388.3</ele>
        <time>2024-10-19T08:55:54.000Z</time>
      </trkpt>
      <trkpt lat="45.12779" lon="5.4492">
        <ele>1389</ele>
        <time>2024-10-19T08:56:07.000Z</time>
      </trkpt>
      <trkpt lat="45.1277" lon="5.44922">
        <ele>1390</ele>
        <time>2024-10-19T08:56:16.000Z</time>
      </trkpt>
      <trkpt lat="45.1276" lon="5.44927">
        <ele>1391.8</ele>
        <time>2024-10-19T08:56:24.000Z</time>
      </trkpt>
      <trkpt lat="45.12751" lon="5.44929">
        <ele>1393.2</ele>
        <time>2024-10-19T08:56:35.000Z</time>
      </trkpt>
      <trkpt lat="45.12741" lon="5.44932">
        <ele>1394.9</ele>
        <time>2024-10-19T08:56:48.000Z</time>
      </trkpt>
      <trkpt lat="45.12732" lon="5.44934">
        <ele>1395.7</ele>
        <time>2024-10-19T08:56:56.000Z</time>
      </trkpt>
      <trkpt lat="45.12722" lon="5.44938">
        <ele>1396.8</ele>
        <time>2024-10-19T08:57:06.000Z</time>
      </trkpt>
      <trkpt lat="45.12713" lon="5.44941">
        <ele>1398</ele>
        <time>2024-10-19T08:57:16.000Z</time>
      </trkpt>
      <trkpt lat="45.12703" lon="5.44941">
        <ele>1399.6</ele>
        <time>2024-10-19T08:57:26.000Z</time>
      </trkpt>
      <trkpt lat="45.12693" lon="5.4494">
        <ele>1400.9</ele>
        <time>2024-10-19T08:57:37.000Z</time>
      </trkpt>
      <trkpt lat="45.12684" lon="5.4494">
        <ele>1402.2</ele>
        <time>2024-10-19T08:57:46.000Z</time>
      </trkpt>
      <trkpt lat="45.12675" lon="5.4494">
        <ele>1403.9</ele>
        <time>2024-10-19T08:57:56.000Z</time>
      </trkpt>
      <trkpt lat="45.12666" lon="5.44939">
        <ele>1405.4</ele>
        <time>2024-10-19T08:58:06.000Z</time>
      </trkpt>
      <trkpt lat="45.12658" lon="5.44932">
        <ele>1406.6</ele>
        <time>2024-10-19T08:58:21.000Z</time>
      </trkpt>
      <trkpt lat="45.12654" lon="5.4492">
        <ele>1415</ele>
        <time>2024-10-19T09:01:39.000Z</time>
      </trkpt>
      <trkpt lat="45.12645" lon="5.44915">
        <ele>1421.4</ele>
        <time>2024-10-19T09:04:26.000Z</time>
      </trkpt>
      <trkpt lat="45.12637" lon="5.44908">
        <ele>1421.7</ele>
        <time>2024-10-19T09:04:35.000Z</time>
      </trkpt>
      <trkpt lat="45.1263" lon="5.44898">
        <ele>1421.9</ele>
        <time>2024-10-19T09:04:44.000Z</time>
      </trkpt>
      <trkpt lat="45.12623" lon="5.4489">
        <ele>1421.8</ele>
        <time>2024-10-19T09:04:52.000Z</time>
      </trkpt>
      <trkpt lat="45.12615" lon="5.44882">
        <ele>1422</ele>
        <time>2024-10-19T09:05:00.000Z</time>
      </trkpt>
      <trkpt lat="45.12607" lon="5.44875">
        <ele>1422.2</ele>
        <time>2024-10-19T09:05:08.000Z</time>
      </trkpt>
      <trkpt lat="45.12598" lon="5.44868">
        <ele>1422.5</ele>
        <time>2024-10-19T09:05:14.000Z</time>
      </trkpt>
      <trkpt lat="45.12589" lon="5.44862">
        <ele>1423</ele>
        <time>2024-10-19T09:05:23.000Z</time>
      </trkpt>
      <trkpt lat="45.12581" lon="5.44856">
        <ele>1423.2</ele>
        <time>2024-10-19T09:05:33.000Z</time>
      </trkpt>
      <trkpt lat="45.12573" lon="5.44848">
        <ele>1423.3</ele>
        <time>2024-10-19T09:05:40.000Z</time>
      </trkpt>
      <trkpt lat="45.12564" lon="5.44841">
        <ele>1423.6</ele>
        <time>2024-10-19T09:05:47.000Z</time>
      </trkpt>
      <trkpt lat="45.12556" lon="5.44835">
        <ele>1424</ele>
        <time>2024-10-19T09:05:54.000Z</time>
      </trkpt>
      <trkpt lat="45.12547" lon="5.44831">
        <ele>1424.5</ele>
        <time>2024-10-19T09:06:04.000Z</time>
      </trkpt>
      <trkpt lat="45.12537" lon="5.44827">
        <ele>1426.4</ele>
        <time>2024-10-19T09:07:04.000Z</time>
      </trkpt>
      <trkpt lat="45.12528" lon="5.44825">
        <ele>1426.6</ele>
        <time>2024-10-19T09:07:39.000Z</time>
      </trkpt>
      <trkpt lat="45.1252" lon="5.44819">
        <ele>1426.4</ele>
        <time>2024-10-19T09:07:49.000Z</time>
      </trkpt>
      <trkpt lat="45.12513" lon="5.44811">
        <ele>1425.7</ele>
        <time>2024-10-19T09:07:58.000Z</time>
      </trkpt>
      <trkpt lat="45.12506" lon="5.44801">
        <ele>1425</ele>
        <time>2024-10-19T09:08:10.000Z</time>
      </trkpt>
      <trkpt lat="45.12503" lon="5.44789">
        <ele>1424.5</ele>
        <time>2024-10-19T09:08:19.000Z</time>
      </trkpt>
      <trkpt lat="45.12501" lon="5.44777">
        <ele>1423.8</ele>
        <time>2024-10-19T09:08:28.000Z</time>
      </trkpt>
      <trkpt lat="45.12502" lon="5.44764">
        <ele>1423.2</ele>
        <time>2024-10-19T09:08:37.000Z</time>
      </trkpt>
      <trkpt lat="45.12502" lon="5.44751">
        <ele>1422.8</ele>
        <time>2024-10-19T09:08:45.000Z</time>
      </trkpt>
      <trkpt lat="45.12502" lon="5.44738">
        <ele>1422.5</ele>
        <time>2024-10-19T09:08:55.000Z</time>
      </trkpt>
      <trkpt lat="45.125" lon="5.44725">
        <ele>1422.5</ele>
        <time>2024-10-19T09:09:04.000Z</time>
      </trkpt>
      <trkpt lat="45.12498" lon="5.44712">
        <ele>1422.6</ele>
        <time>2024-10-19T09:09:13.000Z</time>
      </trkpt>
      <trkpt lat="45.12498" lon="5.44698">
        <ele>1423.1</ele>
        <time>2024-10-19T09:09:36.000Z</time>
      </trkpt>
      <trkpt lat="45.12497" lon="5.44685">
        <ele>1423.4</ele>
        <time>2024-10-19T09:09:46.000Z</time>
      </trkpt>
      <trkpt lat="45.12498" lon="5.44671">
        <ele>1424</ele>
        <time>2024-10-19T09:09:55.000Z</time>
      </trkpt>
      <trkpt lat="45.12499" lon="5.44658">
        <ele>1424.6</ele>
        <time>2024-10-19T09:10:04.000Z</time>
      </trkpt>
      <trkpt lat="45.12501" lon="5.44645">
        <ele>1425.5</ele>
        <time>2024-10-19T09:10:14.000Z</time>
      </trkpt>
      <trkpt lat="45.12504" lon="5.44631">
        <ele>1426.3</ele>
        <time>2024-10-19T09:10:24.000Z</time>
      </trkpt>
      <trkpt lat="45.12507" lon="5.44619">
        <ele>1426.7</ele>
        <time>2024-10-19T09:10:33.000Z</time>
      </trkpt>
      <trkpt lat="45.12511" lon="5.44607">
        <ele>1426.6</ele>
        <time>2024-10-19T09:10:42.000Z</time>
      </trkpt>
      <trkpt lat="45.12512" lon="5.44594">
        <ele>1426.4</ele>
        <time>2024-10-19T09:10:51.000Z</time>
      </trkpt>
      <trkpt lat="45.1251" lon="5.44581">
        <ele>1426.2</ele>
        <time>2024-10-19T09:10:59.000Z</time>
      </trkpt>
      <trkpt lat="45.12505" lon="5.4457">
        <ele>1425.8</ele>
        <time>2024-10-19T09:11:09.000Z</time>
      </trkpt>
      <trkpt lat="45.125" lon="5.44559">
        <ele>1425.3</ele>
        <time>2024-10-19T09:11:19.000Z</time>
      </trkpt>
      <trkpt lat="45.12492" lon="5.4455">
        <ele>1424.4</ele>
        <time>2024-10-19T09:11:30.000Z</time>
      </trkpt>
      <trkpt lat="45.12484" lon="5.44542">
        <ele>1424</ele>
        <time>2024-10-19T09:11:39.000Z</time>
      </trkpt>
      <trkpt lat="45.12477" lon="5.44532">
        <ele>1423.5</ele>
        <time>2024-10-19T09:11:50.000Z</time>
      </trkpt>
      <trkpt lat="45.12468" lon="5.44525">
        <ele>1423.3</ele>
        <time>2024-10-19T09:12:01.000Z</time>
      </trkpt>
      <trkpt lat="45.12461" lon="5.44517">
        <ele>1422.9</ele>
        <time>2024-10-19T09:12:10.000Z</time>
      </trkpt>
      <trkpt lat="45.12454" lon="5.44508">
        <ele>1422.3</ele>
        <time>2024-10-19T09:12:20.000Z</time>
      </trkpt>
      <trkpt lat="45.12447" lon="5.445">
        <ele>1421.9</ele>
        <time>2024-10-19T09:12:44.000Z</time>
      </trkpt>
      <trkpt lat="45.1244" lon="5.44491">
        <ele>1421.2</ele>
        <time>2024-10-19T09:12:55.000Z</time>
      </trkpt>
      <trkpt lat="45.12434" lon="5.44481">
        <ele>1424.7</ele>
        <time>2024-10-19T09:14:37.000Z</time>
      </trkpt>
      <trkpt lat="45.12425" lon="5.44479">
        <ele>1426.5</ele>
        <time>2024-10-19T09:19:19.000Z</time>
      </trkpt>
      <trkpt lat="45.12418" lon="5.4447">
        <ele>1426.2</ele>
        <time>2024-10-19T09:19:27.000Z</time>
      </trkpt>
      <trkpt lat="45.12413" lon="5.44459">
        <ele>1426</ele>
        <time>2024-10-19T09:19:36.000Z</time>
      </trkpt>
      <trkpt lat="45.12405" lon="5.44451">
        <ele>1426.7</ele>
        <time>2024-10-19T09:19:44.000Z</time>
      </trkpt>
      <trkpt lat="45.12398" lon="5.44443">
        <ele>1427</ele>
        <time>2024-10-19T09:19:56.000Z</time>
      </trkpt>
      <trkpt lat="45.12391" lon="5.44434">
        <ele>1427.2</ele>
        <time>2024-10-19T09:20:04.000Z</time>
      </trkpt>
      <trkpt lat="45.12385" lon="5.44424">
        <ele>1427.2</ele>
        <time>2024-10-19T09:20:12.000Z</time>
      </trkpt>
      <trkpt lat="45.12378" lon="5.44413">
        <ele>1426.6</ele>
        <time>2024-10-19T09:20:21.000Z</time>
      </trkpt>
      <trkpt lat="45.12371" lon="5.44403">
        <ele>1426.2</ele>
        <time>2024-10-19T09:20:31.000Z</time>
      </trkpt>
      <trkpt lat="45.12365" lon="5.44393">
        <ele>1425.6</ele>
        <time>2024-10-19T09:20:39.000Z</time>
      </trkpt>
      <trkpt lat="45.12358" lon="5.44384">
        <ele>1425.1</ele>
        <time>2024-10-19T09:20:47.000Z</time>
      </trkpt>
      <trkpt lat="45.12351" lon="5.44375">
        <ele>1424.9</ele>
        <time>2024-10-19T09:20:57.000Z</time>
      </trkpt>
      <trkpt lat="45.12344" lon="5.44366">
        <ele>1424.6</ele>
        <time>2024-10-19T09:21:06.000Z</time>
      </trkpt>
      <trkpt lat="45.12336" lon="5.44359">
        <ele>1423.9</ele>
        <time>2024-10-19T09:21:16.000Z</time>
      </trkpt>
      <trkpt lat="45.12329" lon="5.4435">
        <ele>1423</ele>
        <time>2024-10-19T09:21:25.000Z</time>
      </trkpt>
      <trkpt lat="45.12321" lon="5.44342">
        <ele>1422.2</ele>
        <time>2024-10-19T09:21:34.000Z</time>
      </trkpt>
      <trkpt lat="45.12315" lon="5.44331">
        <ele>1421.4</ele>
        <time>2024-10-19T09:21:42.000Z</time>
      </trkpt>
      <trkpt lat="45.12308" lon="5.44321">
        <ele>1420.6</ele>
        <time>2024-10-19T09:21:50.000Z</time>
      </trkpt>
      <trkpt lat="45.12301" lon="5.44312">
        <ele>1419.6</ele>
        <time>2024-10-19T09:21:59.000Z</time>
      </trkpt>
      <trkpt lat="45.12295" lon="5.44301">
        <ele>1418.7</ele>
        <time>2024-10-19T09:22:07.000Z</time>
      </trkpt>
      <trkpt lat="45.12288" lon="5.44292">
        <ele>1418</ele>
        <time>2024-10-19T09:22:17.000Z</time>
      </trkpt>
      <trkpt lat="45.12279" lon="5.44283">
        <ele>1417.5</ele>
        <time>2024-10-19T09:22:25.000Z</time>
      </trkpt>
      <trkpt lat="45.1227" lon="5.4428">
        <ele>1416.5</ele>
        <time>2024-10-19T09:22:34.000Z</time>
      </trkpt>
      <trkpt lat="45.12261" lon="5.44276">
        <ele>1415.3</ele>
        <time>2024-10-19T09:22:44.000Z</time>
      </trkpt>
      <trkpt lat="45.12251" lon="5.44276">
        <ele>1414.3</ele>
        <time>2024-10-19T09:22:52.000Z</time>
      </trkpt>
      <trkpt lat="45.12242" lon="5.44273">
        <ele>1413.7</ele>
        <time>2024-10-19T09:22:59.000Z</time>
      </trkpt>
      <trkpt lat="45.12232" lon="5.44271">
        <ele>1413</ele>
        <time>2024-10-19T09:23:06.000Z</time>
      </trkpt>
      <trkpt lat="45.12223" lon="5.44267">
        <ele>1412.3</ele>
        <time>2024-10-19T09:23:14.000Z</time>
      </trkpt>
      <trkpt lat="45.12213" lon="5.44266">
        <ele>1411.7</ele>
        <time>2024-10-19T09:23:22.000Z</time>
      </trkpt>
      <trkpt lat="45.12204" lon="5.44264">
        <ele>1410.8</ele>
        <time>2024-10-19T09:23:30.000Z</time>
      </trkpt>
      <trkpt lat="45.12194" lon="5.44264">
        <ele>1409.9</ele>
        <time>2024-10-19T09:23:39.000Z</time>
      </trkpt>
      <trkpt lat="45.12184" lon="5.44264">
        <ele>1409</ele>
        <time>2024-10-19T09:23:48.000Z</time>
      </trkpt>
      <trkpt lat="45.12175" lon="5.44266">
        <ele>1408.3</ele>
        <time>2024-10-19T09:23:56.000Z</time>
      </trkpt>
      <trkpt lat="45.12166" lon="5.44268">
        <ele>1407.5</ele>
        <time>2024-10-19T09:24:05.000Z</time>
      </trkpt>
      <trkpt lat="45.12156" lon="5.44269">
        <ele>1406.8</ele>
        <time>2024-10-19T09:24:13.000Z</time>
      </trkpt>
      <trkpt lat="45.12147" lon="5.4427">
        <ele>1406.2</ele>
        <time>2024-10-19T09:24:21.000Z</time>
      </trkpt>
      <trkpt lat="45.12138" lon="5.44275">
        <ele>1405.6</ele>
        <time>2024-10-19T09:24:30.000Z</time>
      </trkpt>
      <trkpt lat="45.12128" lon="5.44276">
        <ele>1404.9</ele>
        <time>2024-10-19T09:24:38.000Z</time>
      </trkpt>
      <trkpt lat="45.12119" lon="5.44277">
        <ele>1404.2</ele>
        <time>2024-10-19T09:25:08.000Z</time>
      </trkpt>
      <trkpt lat="45.1211" lon="5.4428">
        <ele>1404</ele>
        <time>2024-10-19T09:26:55.000Z</time>
      </trkpt>
      <trkpt lat="45.12102" lon="5.44288">
        <ele>1403.8</ele>
        <time>2024-10-19T09:27:05.000Z</time>
      </trkpt>
      <trkpt lat="45.12095" lon="5.44295">
        <ele>1403.6</ele>
        <time>2024-10-19T09:27:15.000Z</time>
      </trkpt>
      <trkpt lat="45.12086" lon="5.44298">
        <ele>1403.4</ele>
        <time>2024-10-19T09:27:27.000Z</time>
      </trkpt>
      <trkpt lat="45.12077" lon="5.44302">
        <ele>1403</ele>
        <time>2024-10-19T09:27:37.000Z</time>
      </trkpt>
      <trkpt lat="45.12066" lon="5.44302">
        <ele>1402.7</ele>
        <time>2024-10-19T09:27:47.000Z</time>
      </trkpt>
      <trkpt lat="45.12057" lon="5.44298">
        <ele>1402.5</ele>
        <time>2024-10-19T09:27:55.000Z</time>
      </trkpt>
      <trkpt lat="45.12048" lon="5.44296">
        <ele>1402.1</ele>
        <time>2024-10-19T09:28:04.000Z</time>
      </trkpt>
      <trkpt lat="45.12039" lon="5.44292">
        <ele>1402</ele>
        <time>2024-10-19T09:28:12.000Z</time>
      </trkpt>
      <trkpt lat="45.12029" lon="5.44289">
        <ele>1402</ele>
        <time>2024-10-19T09:28:21.000Z</time>
      </trkpt>
      <trkpt lat="45.1202" lon="5.44287">
        <ele>1402</ele>
        <time>2024-10-19T09:28:30.000Z</time>
      </trkpt>
      <trkpt lat="45.12011" lon="5.44283">
        <ele>1402.3</ele>
        <time>2024-10-19T09:28:38.000Z</time>
      </trkpt>
      <trkpt lat="45.12002" lon="5.44282">
        <ele>1404.4</ele>
        <time>2024-10-19T09:28:47.000Z</time>
      </trkpt>
      <trkpt lat="45.11997" lon="5.44293">
        <ele>1402.8</ele>
        <time>2024-10-19T09:29:15.000Z</time>
      </trkpt>
      <trkpt lat="45.11987" lon="5.44294">
        <ele>1402.8</ele>
        <time>2024-10-19T09:29:28.000Z</time>
      </trkpt>
      <trkpt lat="45.11978" lon="5.44292">
        <ele>1402.9</ele>
        <time>2024-10-19T09:29:38.000Z</time>
      </trkpt>
      <trkpt lat="45.11968" lon="5.4429">
        <ele>1403.2</ele>
        <time>2024-10-19T09:29:47.000Z</time>
      </trkpt>
      <trkpt lat="45.11959" lon="5.4429">
        <ele>1403.2</ele>
        <time>2024-10-19T09:29:56.000Z</time>
      </trkpt>
      <trkpt lat="45.1195" lon="5.4429">
        <ele>1403.5</ele>
        <time>2024-10-19T09:30:11.000Z</time>
      </trkpt>
      <trkpt lat="45.1194" lon="5.44292">
        <ele>1403.3</ele>
        <time>2024-10-19T09:30:23.000Z</time>
      </trkpt>
      <trkpt lat="45.11931" lon="5.44292">
        <ele>1403.1</ele>
        <time>2024-10-19T09:30:32.000Z</time>
      </trkpt>
      <trkpt lat="45.11921" lon="5.4429">
        <ele>1402.9</ele>
        <time>2024-10-19T09:30:40.000Z</time>
      </trkpt>
      <trkpt lat="45.11912" lon="5.44287">
        <ele>1402.8</ele>
        <time>2024-10-19T09:30:50.000Z</time>
      </trkpt>
      <trkpt lat="45.11903" lon="5.44285">
        <ele>1402.6</ele>
        <time>2024-10-19T09:30:59.000Z</time>
      </trkpt>
      <trkpt lat="45.11894" lon="5.44283">
        <ele>1402.4</ele>
        <time>2024-10-19T09:31:07.000Z</time>
      </trkpt>
      <trkpt lat="45.11886" lon="5.44277">
        <ele>1402.5</ele>
        <time>2024-10-19T09:31:17.000Z</time>
      </trkpt>
      <trkpt lat="45.11876" lon="5.44277">
        <ele>1402.3</ele>
        <time>2024-10-19T09:31:26.000Z</time>
      </trkpt>
      <trkpt lat="45.11867" lon="5.44276">
        <ele>1401.9</ele>
        <time>2024-10-19T09:31:47.000Z</time>
      </trkpt>
      <trkpt lat="45.11857" lon="5.44275">
        <ele>1402</ele>
        <time>2024-10-19T09:31:56.000Z</time>
      </trkpt>
      <trkpt lat="45.11847" lon="5.44275">
        <ele>1401.8</ele>
        <time>2024-10-19T09:32:11.000Z</time>
      </trkpt>
      <trkpt lat="45.11853" lon="5.44264">
        <ele>1401.2</ele>
        <time>2024-10-19T09:33:35.000Z</time>
      </trkpt>
      <trkpt lat="45.1186" lon="5.44256">
        <ele>1402.1</ele>
        <time>2024-10-19T09:33:45.000Z</time>
      </trkpt>
      <trkpt lat="45.11851" lon="5.4426">
        <ele>1402.2</ele>
        <time>2024-10-19T09:35:29.000Z</time>
      </trkpt>
      <trkpt lat="45.11842" lon="5.44259">
        <ele>1401.3</ele>
        <time>2024-10-19T09:36:07.000Z</time>
      </trkpt>
      <trkpt lat="45.11834" lon="5.44255">
        <ele>1400.5</ele>
        <time>2024-10-19T09:37:27.000Z</time>
      </trkpt>
      <trkpt lat="45.11824" lon="5.44257">
        <ele>1400.1</ele>
        <time>2024-10-19T09:38:07.000Z</time>
      </trkpt>
      <trkpt lat="45.11815" lon="5.44257">
        <ele>1400.1</ele>
        <time>2024-10-19T09:38:16.000Z</time>
      </trkpt>
      <trkpt lat="45.11806" lon="5.44258">
        <ele>1400.1</ele>
        <time>2024-10-19T09:38:26.000Z</time>
      </trkpt>
      <trkpt lat="45.11797" lon="5.44262">
        <ele>1399.2</ele>
        <time>2024-10-19T09:38:35.000Z</time>
      </trkpt>
      <trkpt lat="45.11788" lon="5.44265">
        <ele>1400.3</ele>
        <time>2024-10-19T09:38:48.000Z</time>
      </trkpt>
      <trkpt lat="45.11779" lon="5.44269">
        <ele>1399.6</ele>
        <time>2024-10-19T09:39:04.000Z</time>
      </trkpt>
      <trkpt lat="45.1177" lon="5.44268">
        <ele>1399.1</ele>
        <time>2024-10-19T09:39:15.000Z</time>
      </trkpt>
      <trkpt lat="45.1176" lon="5.44267">
        <ele>1398.5</ele>
        <time>2024-10-19T09:39:25.000Z</time>
      </trkpt>
      <trkpt lat="45.11751" lon="5.44266">
        <ele>1398.2</ele>
        <time>2024-10-19T09:39:33.000Z</time>
      </trkpt>
      <trkpt lat="45.11742" lon="5.44263">
        <ele>1397.6</ele>
        <time>2024-10-19T09:39:41.000Z</time>
      </trkpt>
      <trkpt lat="45.11732" lon="5.44259">
        <ele>1397.2</ele>
        <time>2024-10-19T09:39:49.000Z</time>
      </trkpt>
      <trkpt lat="45.11724" lon="5.44253">
        <ele>1396.6</ele>
        <time>2024-10-19T09:39:57.000Z</time>
      </trkpt>
      <trkpt lat="45.11714" lon="5.44249">
        <ele>1396.1</ele>
        <time>2024-10-19T09:40:07.000Z</time>
      </trkpt>
      <trkpt lat="45.11705" lon="5.44247">
        <ele>1395.8</ele>
        <time>2024-10-19T09:40:18.000Z</time>
      </trkpt>
      <trkpt lat="45.11694" lon="5.44249">
        <ele>1394.9</ele>
        <time>2024-10-19T09:40:29.000Z</time>
      </trkpt>
      <trkpt lat="45.11685" lon="5.44251">
        <ele>1394</ele>
        <time>2024-10-19T09:40:38.000Z</time>
      </trkpt>
      <trkpt lat="45.11676" lon="5.44253">
        <ele>1393</ele>
        <time>2024-10-19T09:40:47.000Z</time>
      </trkpt>
      <trkpt lat="45.11666" lon="5.44255">
        <ele>1392.1</ele>
        <time>2024-10-19T09:40:56.000Z</time>
      </trkpt>
      <trkpt lat="45.11657" lon="5.44259">
        <ele>1391.2</ele>
        <time>2024-10-19T09:41:07.000Z</time>
      </trkpt>
      <trkpt lat="45.11648" lon="5.44265">
        <ele>1390.6</ele>
        <time>2024-10-19T09:41:16.000Z</time>
      </trkpt>
      <trkpt lat="45.1164" lon="5.4427">
        <ele>1389.8</ele>
        <time>2024-10-19T09:41:24.000Z</time>
      </trkpt>
      <trkpt lat="45.1163" lon="5.44273">
        <ele>1388.8</ele>
        <time>2024-10-19T09:41:34.000Z</time>
      </trkpt>
      <trkpt lat="45.11625" lon="5.44283">
        <ele>1388.3</ele>
        <time>2024-10-19T09:41:50.000Z</time>
      </trkpt>
      <trkpt lat="45.11624" lon="5.4427">
        <ele>1387.9</ele>
        <time>2024-10-19T09:42:39.000Z</time>
      </trkpt>
      <trkpt lat="45.11624" lon="5.44283">
        <ele>1388.6</ele>
        <time>2024-10-19T09:44:12.000Z</time>
      </trkpt>
      <trkpt lat="45.11618" lon="5.44272">
        <ele>1387.4</ele>
        <time>2024-10-19T09:44:56.000Z</time>
      </trkpt>
      <trkpt lat="45.11612" lon="5.44261">
        <ele>1386.4</ele>
        <time>2024-10-19T09:45:10.000Z</time>
      </trkpt>
      <trkpt lat="45.11605" lon="5.44252">
        <ele>1385.6</ele>
        <time>2024-10-19T09:45:21.000Z</time>
      </trkpt>
      <trkpt lat="45.11598" lon="5.44243">
        <ele>1384.7</ele>
        <time>2024-10-19T09:45:31.000Z</time>
      </trkpt>
      <trkpt lat="45.11591" lon="5.44235">
        <ele>1383.7</ele>
        <time>2024-10-19T09:45:40.000Z</time>
      </trkpt>
      <trkpt lat="45.11585" lon="5.44225">
        <ele>1382.9</ele>
        <time>2024-10-19T09:45:49.000Z</time>
      </trkpt>
      <trkpt lat="45.1158" lon="5.44214">
        <ele>1381.7</ele>
        <time>2024-10-19T09:45:58.000Z</time>
      </trkpt>
      <trkpt lat="45.11575" lon="5.44203">
        <ele>1380.8</ele>
        <time>2024-10-19T09:46:07.000Z</time>
      </trkpt>
      <trkpt lat="45.11572" lon="5.44191">
        <ele>1379.8</ele>
        <time>2024-10-19T09:46:19.000Z</time>
      </trkpt>
      <trkpt lat="45.1157" lon="5.44178">
        <ele>1379.1</ele>
        <time>2024-10-19T09:46:36.000Z</time>
      </trkpt>
      <trkpt lat="45.11566" lon="5.44166">
        <ele>1378</ele>
        <time>2024-10-19T09:46:47.000Z</time>
      </trkpt>
      <trkpt lat="45.11564" lon="5.44153">
        <ele>1377</ele>
        <time>2024-10-19T09:46:57.000Z</time>
      </trkpt>
      <trkpt lat="45.11564" lon="5.44139">
        <ele>1375.8</ele>
        <time>2024-10-19T09:47:07.000Z</time>
      </trkpt>
      <trkpt lat="45.11565" lon="5.44126">
        <ele>1374.8</ele>
        <time>2024-10-19T09:47:15.000Z</time>
      </trkpt>
      <trkpt lat="45.11566" lon="5.44113">
        <ele>1373.9</ele>
        <time>2024-10-19T09:47:24.000Z</time>
      </trkpt>
      <trkpt lat="45.11567" lon="5.441">
        <ele>1372.9</ele>
        <time>2024-10-19T09:47:34.000Z</time>
      </trkpt>
      <trkpt lat="45.11565" lon="5.44087">
        <ele>1372.3</ele>
        <time>2024-10-19T09:47:43.000Z</time>
      </trkpt>
      <trkpt lat="45.11564" lon="5.44073">
        <ele>1371.3</ele>
        <time>2024-10-19T09:47:52.000Z</time>
      </trkpt>
      <trkpt lat="45.11562" lon="5.4406">
        <ele>1370.2</ele>
        <time>2024-10-19T09:48:00.000Z</time>
      </trkpt>
      <trkpt lat="45.11561" lon="5.44046">
        <ele>1369</ele>
        <time>2024-10-19T09:48:10.000Z</time>
      </trkpt>
      <trkpt lat="45.11557" lon="5.44034">
        <ele>1368.2</ele>
        <time>2024-10-19T09:48:18.000Z</time>
      </trkpt>
      <trkpt lat="45.11554" lon="5.44022">
        <ele>1367.5</ele>
        <time>2024-10-19T09:48:26.000Z</time>
      </trkpt>
      <trkpt lat="45.11551" lon="5.4401">
        <ele>1367.5</ele>
        <time>2024-10-19T09:48:34.000Z</time>
      </trkpt>
      <trkpt lat="45.1155" lon="5.43996">
        <ele>1366.9</ele>
        <time>2024-10-19T09:48:46.000Z</time>
      </trkpt>
      <trkpt lat="45.11547" lon="5.43984">
        <ele>1366.4</ele>
        <time>2024-10-19T09:48:59.000Z</time>
      </trkpt>
      <trkpt lat="45.11544" lon="5.43971">
        <ele>1366.4</ele>
        <time>2024-10-19T09:49:10.000Z</time>
      </trkpt>
      <trkpt lat="45.11538" lon="5.43961">
        <ele>1365.9</ele>
        <time>2024-10-19T09:49:19.000Z</time>
      </trkpt>
      <trkpt lat="45.1153" lon="5.43954">
        <ele>1365</ele>
        <time>2024-10-19T09:49:29.000Z</time>
      </trkpt>
      <trkpt lat="45.11523" lon="5.43946">
        <ele>1364.4</ele>
        <time>2024-10-19T09:49:38.000Z</time>
      </trkpt>
      <trkpt lat="45.11514" lon="5.4394">
        <ele>1363.7</ele>
        <time>2024-10-19T09:49:47.000Z</time>
      </trkpt>
      <trkpt lat="45.11506" lon="5.43935">
        <ele>1363.3</ele>
        <time>2024-10-19T09:49:59.000Z</time>
      </trkpt>
      <trkpt lat="45.11497" lon="5.43931">
        <ele>1362.4</ele>
        <time>2024-10-19T09:50:09.000Z</time>
      </trkpt>
      <trkpt lat="45.11489" lon="5.43923">
        <ele>1361.7</ele>
        <time>2024-10-19T09:50:17.000Z</time>
      </trkpt>
      <trkpt lat="45.11483" lon="5.43912">
        <ele>1361.1</ele>
        <time>2024-10-19T09:50:25.000Z</time>
      </trkpt>
      <trkpt lat="45.11476" lon="5.43902">
        <ele>1360.1</ele>
        <time>2024-10-19T09:50:34.000Z</time>
      </trkpt>
      <trkpt lat="45.11469" lon="5.43893">
        <ele>1359.5</ele>
        <time>2024-10-19T09:50:43.000Z</time>
      </trkpt>
      <trkpt lat="45.11461" lon="5.43886">
        <ele>1358.7</ele>
        <time>2024-10-19T09:50:52.000Z</time>
      </trkpt>
      <trkpt lat="45.11452" lon="5.4388">
        <ele>1358</ele>
        <time>2024-10-19T09:51:01.000Z</time>
      </trkpt>
      <trkpt lat="45.11443" lon="5.43875">
        <ele>1357.1</ele>
        <time>2024-10-19T09:51:10.000Z</time>
      </trkpt>
      <trkpt lat="45.11435" lon="5.43869">
        <ele>1356.3</ele>
        <time>2024-10-19T09:51:21.000Z</time>
      </trkpt>
      <trkpt lat="45.11426" lon="5.43863">
        <ele>1355.3</ele>
        <time>2024-10-19T09:51:30.000Z</time>
      </trkpt>
      <trkpt lat="45.11417" lon="5.43858">
        <ele>1354.2</ele>
        <time>2024-10-19T09:51:38.000Z</time>
      </trkpt>
      <trkpt lat="45.11408" lon="5.43853">
        <ele>1353.1</ele>
        <time>2024-10-19T09:51:46.000Z</time>
      </trkpt>
      <trkpt lat="45.11399" lon="5.43851">
        <ele>1352.2</ele>
        <time>2024-10-19T09:51:56.000Z</time>
      </trkpt>
      <trkpt lat="45.1139" lon="5.43849">
        <ele>1351.6</ele>
        <time>2024-10-19T09:52:06.000Z</time>
      </trkpt>
      <trkpt lat="45.11381" lon="5.43848">
        <ele>1350.8</ele>
        <time>2024-10-19T09:52:15.000Z</time>
      </trkpt>
      <trkpt lat="45.11372" lon="5.43844">
        <ele>1349.7</ele>
        <time>2024-10-19T09:52:24.000Z</time>
      </trkpt>
      <trkpt lat="45.11363" lon="5.43838">
        <ele>1348.8</ele>
        <time>2024-10-19T09:52:33.000Z</time>
      </trkpt>
      <trkpt lat="45.11355" lon="5.43832">
        <ele>1347.8</ele>
        <time>2024-10-19T09:52:43.000Z</time>
      </trkpt>
      <trkpt lat="45.11348" lon="5.43824">
        <ele>1347.2</ele>
        <time>2024-10-19T09:52:52.000Z</time>
      </trkpt>
      <trkpt lat="45.11341" lon="5.43833">
        <ele>1346.3</ele>
        <time>2024-10-19T09:54:17.000Z</time>
      </trkpt>
      <trkpt lat="45.11341" lon="5.4382">
        <ele>1346.5</ele>
        <time>2024-10-19T09:58:16.000Z</time>
      </trkpt>
      <trkpt lat="45.11336" lon="5.43809">
        <ele>1346.2</ele>
        <time>2024-10-19T09:58:28.000Z</time>
      </trkpt>
      <trkpt lat="45.11331" lon="5.43798">
        <ele>1345.8</ele>
        <time>2024-10-19T09:59:18.000Z</time>
      </trkpt>
      <trkpt lat="45.11326" lon="5.43786">
        <ele>1345.1</ele>
        <time>2024-10-19T09:59:28.000Z</time>
      </trkpt>
      <trkpt lat="45.11322" lon="5.43774">
        <ele>1344.6</ele>
        <time>2024-10-19T09:59:37.000Z</time>
      </trkpt>
      <trkpt lat="45.11318" lon="5.43762">
        <ele>1344.1</ele>
        <time>2024-10-19T09:59:46.000Z</time>
      </trkpt>
      <trkpt lat="45.11314" lon="5.43749">
        <ele>1343.6</ele>
        <time>2024-10-19T09:59:56.000Z</time>
      </trkpt>
      <trkpt lat="45.11312" lon="5.43736">
        <ele>1342.7</ele>
        <time>2024-10-19T10:00:05.000Z</time>
      </trkpt>
      <trkpt lat="45.1131" lon="5.43722">
        <ele>1341.9</ele>
        <time>2024-10-19T10:00:17.000Z</time>
      </trkpt>
      <trkpt lat="45.11308" lon="5.4371">
        <ele>1341.1</ele>
        <time>2024-10-19T10:00:25.000Z</time>
      </trkpt>
      <trkpt lat="45.11306" lon="5.43696">
        <ele>1340.8</ele>
        <time>2024-10-19T10:00:35.000Z</time>
      </trkpt>
      <trkpt lat="45.11303" lon="5.43683">
        <ele>1340</ele>
        <time>2024-10-19T10:00:44.000Z</time>
      </trkpt>
      <trkpt lat="45.11299" lon="5.43671">
        <ele>1339.4</ele>
        <time>2024-10-19T10:00:53.000Z</time>
      </trkpt>
      <trkpt lat="45.11295" lon="5.43659">
        <ele>1338.6</ele>
        <time>2024-10-19T10:01:01.000Z</time>
      </trkpt>
      <trkpt lat="45.11292" lon="5.43647">
        <ele>1337.7</ele>
        <time>2024-10-19T10:01:10.000Z</time>
      </trkpt>
      <trkpt lat="45.11291" lon="5.43634">
        <ele>1337.2</ele>
        <time>2024-10-19T10:01:19.000Z</time>
      </trkpt>
      <trkpt lat="45.11288" lon="5.43621">
        <ele>1336.9</ele>
        <time>2024-10-19T10:01:27.000Z</time>
      </trkpt>
      <trkpt lat="45.11284" lon="5.43608">
        <ele>1336.4</ele>
        <time>2024-10-19T10:01:35.000Z</time>
      </trkpt>
      <trkpt lat="45.1128" lon="5.43596">
        <ele>1335.7</ele>
        <time>2024-10-19T10:01:43.000Z</time>
      </trkpt>
      <trkpt lat="45.11277" lon="5.43583">
        <ele>1335.4</ele>
        <time>2024-10-19T10:01:53.000Z</time>
      </trkpt>
      <trkpt lat="45.11277" lon="5.4357">
        <ele>1334.7</ele>
        <time>2024-10-19T10:02:02.000Z</time>
      </trkpt>
      <trkpt lat="45.11281" lon="5.43557">
        <ele>1333.8</ele>
        <time>2024-10-19T10:02:12.000Z</time>
      </trkpt>
      <trkpt lat="45.11289" lon="5.43551">
        <ele>1332.9</ele>
        <time>2024-10-19T10:02:32.000Z</time>
      </trkpt>
      <trkpt lat="45.1128" lon="5.43551">
        <ele>1332.8</ele>
        <time>2024-10-19T10:03:22.000Z</time>
      </trkpt>
      <trkpt lat="45.1129" lon="5.43549">
        <ele>1332.5</ele>
        <time>2024-10-19T10:04:42.000Z</time>
      </trkpt>
      <trkpt lat="45.11299" lon="5.43548">
        <ele>1330.5</ele>
        <time>2024-10-19T10:05:40.000Z</time>
      </trkpt>
      <trkpt lat="45.11303" lon="5.43537">
        <ele>1328.4</ele>
        <time>2024-10-19T10:15:44.000Z</time>
      </trkpt>
      <trkpt lat="45.11288" lon="5.43555">
        <ele>1329</ele>
        <time>2024-10-19T10:40:26.000Z</time>
      </trkpt>
      <trkpt lat="45.11296" lon="5.43549">
        <ele>1328.7</ele>
        <time>2024-10-19T10:40:57.000Z</time>
      </trkpt>
      <trkpt lat="45.11305" lon="5.43545">
        <ele>1328.8</ele>
        <time>2024-10-19T10:41:25.000Z</time>
      </trkpt>
      <trkpt lat="45.11309" lon="5.43533">
        <ele>1328.2</ele>
        <time>2024-10-19T10:41:58.000Z</time>
      </trkpt>
      <trkpt lat="45.11314" lon="5.43522">
        <ele>1327.2</ele>
        <time>2024-10-19T10:43:47.000Z</time>
      </trkpt>
      <trkpt lat="45.1132" lon="5.43511">
        <ele>1326.5</ele>
        <time>2024-10-19T10:44:50.000Z</time>
      </trkpt>
      <trkpt lat="45.11326" lon="5.43501">
        <ele>1325.6</ele>
        <time>2024-10-19T10:45:09.000Z</time>
      </trkpt>
      <trkpt lat="45.11331" lon="5.43491">
        <ele>1325.2</ele>
        <time>2024-10-19T10:45:21.000Z</time>
      </trkpt>
      <trkpt lat="45.11336" lon="5.4348">
        <ele>1323.8</ele>
        <time>2024-10-19T10:45:35.000Z</time>
      </trkpt>
      <trkpt lat="45.11341" lon="5.43468">
        <ele>1322.9</ele>
        <time>2024-10-19T10:45:47.000Z</time>
      </trkpt>
      <trkpt lat="45.11345" lon="5.43456">
        <ele>1323.3</ele>
        <time>2024-10-19T10:45:57.000Z</time>
      </trkpt>
      <trkpt lat="45.11348" lon="5.43444">
        <ele>1322.2</ele>
        <time>2024-10-19T10:46:15.000Z</time>
      </trkpt>
      <trkpt lat="45.11352" lon="5.43431">
        <ele>1321.6</ele>
        <time>2024-10-19T10:46:23.000Z</time>
      </trkpt>
      <trkpt lat="45.11357" lon="5.4342">
        <ele>1320.8</ele>
        <time>2024-10-19T10:46:32.000Z</time>
      </trkpt>
      <trkpt lat="45.11363" lon="5.43408">
        <ele>1320.3</ele>
        <time>2024-10-19T10:46:41.000Z</time>
      </trkpt>
      <trkpt lat="45.11368" lon="5.43396">
        <ele>1320</ele>
        <time>2024-10-19T10:46:50.000Z</time>
      </trkpt>
      <trkpt lat="45.1137" lon="5.43383">
        <ele>1320</ele>
        <time>2024-10-19T10:46:58.000Z</time>
      </trkpt>
      <trkpt lat="45.11369" lon="5.43369">
        <ele>1320</ele>
        <time>2024-10-19T10:47:07.000Z</time>
      </trkpt>
      <trkpt lat="45.11366" lon="5.43357">
        <ele>1319.8</ele>
        <time>2024-10-19T10:47:16.000Z</time>
      </trkpt>
      <trkpt lat="45.11365" lon="5.43343">
        <ele>1319.8</ele>
        <time>2024-10-19T10:47:28.000Z</time>
      </trkpt>
      <trkpt lat="45.11363" lon="5.4333">
        <ele>1319.9</ele>
        <time>2024-10-19T10:47:38.000Z</time>
      </trkpt>
      <trkpt lat="45.11362" lon="5.43317">
        <ele>1319.7</ele>
        <time>2024-10-19T10:47:48.000Z</time>
      </trkpt>
      <trkpt lat="45.11363" lon="5.43304">
        <ele>1319.8</ele>
        <time>2024-10-19T10:47:57.000Z</time>
      </trkpt>
      <trkpt lat="45.11363" lon="5.43291">
        <ele>1319.6</ele>
        <time>2024-10-19T10:48:06.000Z</time>
      </trkpt>
      <trkpt lat="45.11365" lon="5.43277">
        <ele>1319.7</ele>
        <time>2024-10-19T10:48:15.000Z</time>
      </trkpt>
      <trkpt lat="45.11367" lon="5.43264">
        <ele>1319.2</ele>
        <time>2024-10-19T10:48:25.000Z</time>
      </trkpt>
      <trkpt lat="45.11372" lon="5.43252">
        <ele>1318.5</ele>
        <time>2024-10-19T10:48:36.000Z</time>
      </trkpt>
      <trkpt lat="45.11378" lon="5.43241">
        <ele>1317.7</ele>
        <time>2024-10-19T10:48:46.000Z</time>
      </trkpt>
      <trkpt lat="45.11384" lon="5.43231">
        <ele>1316.5</ele>
        <time>2024-10-19T10:48:56.000Z</time>
      </trkpt>
      <trkpt lat="45.11389" lon="5.43221">
        <ele>1315.5</ele>
        <time>2024-10-19T10:49:05.000Z</time>
      </trkpt>
      <trkpt lat="45.11396" lon="5.4321">
        <ele>1315.2</ele>
        <time>2024-10-19T10:49:15.000Z</time>
      </trkpt>
      <trkpt lat="45.11402" lon="5.432">
        <ele>1314.3</ele>
        <time>2024-10-19T10:49:32.000Z</time>
      </trkpt>
      <trkpt lat="45.1141" lon="5.43191">
        <ele>1313.8</ele>
        <time>2024-10-19T10:49:53.000Z</time>
      </trkpt>
      <trkpt lat="45.11416" lon="5.43181">
        <ele>1313.3</ele>
        <time>2024-10-19T10:50:10.000Z</time>
      </trkpt>
      <trkpt lat="45.11423" lon="5.43172">
        <ele>1312.5</ele>
        <time>2024-10-19T10:50:27.000Z</time>
      </trkpt>
      <trkpt lat="45.11429" lon="5.43162">
        <ele>1311.7</ele>
        <time>2024-10-19T10:50:51.000Z</time>
      </trkpt>
      <trkpt lat="45.11434" lon="5.43151">
        <ele>1310.8</ele>
        <time>2024-10-19T10:51:15.000Z</time>
      </trkpt>
      <trkpt lat="45.1144" lon="5.43142">
        <ele>1310.7</ele>
        <time>2024-10-19T10:51:27.000Z</time>
      </trkpt>
      <trkpt lat="45.11447" lon="5.43132">
        <ele>1310.3</ele>
        <time>2024-10-19T10:51:39.000Z</time>
      </trkpt>
      <trkpt lat="45.11454" lon="5.43122">
        <ele>1309.9</ele>
        <time>2024-10-19T10:51:50.000Z</time>
      </trkpt>
      <trkpt lat="45.1146" lon="5.43113">
        <ele>1309.5</ele>
        <time>2024-10-19T10:52:01.000Z</time>
      </trkpt>
      <trkpt lat="45.11464" lon="5.431">
        <ele>1308.9</ele>
        <time>2024-10-19T10:52:14.000Z</time>
      </trkpt>
      <trkpt lat="45.11466" lon="5.43087">
        <ele>1308.2</ele>
        <time>2024-10-19T10:52:24.000Z</time>
      </trkpt>
      <trkpt lat="45.11467" lon="5.43073">
        <ele>1307.2</ele>
        <time>2024-10-19T10:52:35.000Z</time>
      </trkpt>
      <trkpt lat="45.11466" lon="5.4306">
        <ele>1306.6</ele>
        <time>2024-10-19T10:52:47.000Z</time>
      </trkpt>
      <trkpt lat="45.11462" lon="5.43048">
        <ele>1305.5</ele>
        <time>2024-10-19T10:52:58.000Z</time>
      </trkpt>
      <trkpt lat="45.11455" lon="5.43039">
        <ele>1305</ele>
        <time>2024-10-19T10:53:07.000Z</time>
      </trkpt>
      <trkpt lat="45.11447" lon="5.43031">
        <ele>1304.6</ele>
        <time>2024-10-19T10:53:17.000Z</time>
      </trkpt>
      <trkpt lat="45.1144" lon="5.43022">
        <ele>1303.9</ele>
        <time>2024-10-19T10:53:27.000Z</time>
      </trkpt>
      <trkpt lat="45.11435" lon="5.43011">
        <ele>1303.6</ele>
        <time>2024-10-19T10:53:36.000Z</time>
      </trkpt>
      <trkpt lat="45.11429" lon="5.43001">
        <ele>1303.3</ele>
        <time>2024-10-19T10:53:46.000Z</time>
      </trkpt>
      <trkpt lat="45.11425" lon="5.42989">
        <ele>1302.9</ele>
        <time>2024-10-19T10:54:00.000Z</time>
      </trkpt>
      <trkpt lat="45.11422" lon="5.42977">
        <ele>1302.6</ele>
        <time>2024-10-19T10:54:10.000Z</time>
      </trkpt>
      <trkpt lat="45.11418" lon="5.42964">
        <ele>1302.5</ele>
        <time>2024-10-19T10:54:20.000Z</time>
      </trkpt>
      <trkpt lat="45.11414" lon="5.42952">
        <ele>1302</ele>
        <time>2024-10-19T10:54:30.000Z</time>
      </trkpt>
      <trkpt lat="45.1141" lon="5.4294">
        <ele>1301.4</ele>
        <time>2024-10-19T10:54:42.000Z</time>
      </trkpt>
      <trkpt lat="45.11405" lon="5.42929">
        <ele>1301.1</ele>
        <time>2024-10-19T10:54:58.000Z</time>
      </trkpt>
      <trkpt lat="45.11401" lon="5.42917">
        <ele>1300.6</ele>
        <time>2024-10-19T10:55:16.000Z</time>
      </trkpt>
      <trkpt lat="45.11397" lon="5.42905">
        <ele>1299.7</ele>
        <time>2024-10-19T10:55:27.000Z</time>
      </trkpt>
      <trkpt lat="45.11394" lon="5.42893">
        <ele>1299.2</ele>
        <time>2024-10-19T10:55:36.000Z</time>
      </trkpt>
      <trkpt lat="45.11392" lon="5.4288">
        <ele>1298.6</ele>
        <time>2024-10-19T10:55:48.000Z</time>
      </trkpt>
      <trkpt lat="45.11388" lon="5.42868">
        <ele>1297.6</ele>
        <time>2024-10-19T10:56:09.000Z</time>
      </trkpt>
      <trkpt lat="45.11385" lon="5.42856">
        <ele>1297</ele>
        <time>2024-10-19T10:56:22.000Z</time>
      </trkpt>
      <trkpt lat="45.1138" lon="5.42844">
        <ele>1296</ele>
        <time>2024-10-19T10:56:37.000Z</time>
      </trkpt>
      <trkpt lat="45.11375" lon="5.42833">
        <ele>1295.2</ele>
        <time>2024-10-19T10:57:22.000Z</time>
      </trkpt>
      <trkpt lat="45.1137" lon="5.42821">
        <ele>1294.3</ele>
        <time>2024-10-19T10:57:34.000Z</time>
      </trkpt>
      <trkpt lat="45.11365" lon="5.42809">
        <ele>1293.5</ele>
        <time>2024-10-19T10:57:45.000Z</time>
      </trkpt>
      <trkpt lat="45.11358" lon="5.428">
        <ele>1292.5</ele>
        <time>2024-10-19T10:57:56.000Z</time>
      </trkpt>
      <trkpt lat="45.11351" lon="5.42791">
        <ele>1291.6</ele>
        <time>2024-10-19T10:58:06.000Z</time>
      </trkpt>
      <trkpt lat="45.11343" lon="5.42782">
        <ele>1291.2</ele>
        <time>2024-10-19T10:58:16.000Z</time>
      </trkpt>
      <trkpt lat="45.11336" lon="5.42775">
        <ele>1290.9</ele>
        <time>2024-10-19T10:58:27.000Z</time>
      </trkpt>
      <trkpt lat="45.11327" lon="5.42778">
        <ele>1290.5</ele>
        <time>2024-10-19T10:58:42.000Z</time>
      </trkpt>
      <trkpt lat="45.11324" lon="5.4279">
        <ele>1290.4</ele>
        <time>2024-10-19T10:59:18.000Z</time>
      </trkpt>
      <trkpt lat="45.11318" lon="5.42801">
        <ele>1290</ele>
        <time>2024-10-19T10:59:33.000Z</time>
      </trkpt>
      <trkpt lat="45.11325" lon="5.42792">
        <ele>1290</ele>
        <time>2024-10-19T11:00:26.000Z</time>
      </trkpt>
      <trkpt lat="45.1132" lon="5.42803">
        <ele>1289.6</ele>
        <time>2024-10-19T11:01:04.000Z</time>
      </trkpt>
      <trkpt lat="45.11314" lon="5.42813">
        <ele>1289.2</ele>
        <time>2024-10-19T11:02:02.000Z</time>
      </trkpt>
      <trkpt lat="45.11321" lon="5.42804">
        <ele>1289.6</ele>
        <time>2024-10-19T11:02:23.000Z</time>
      </trkpt>
      <trkpt lat="45.11326" lon="5.42793">
        <ele>1289.9</ele>
        <time>2024-10-19T11:02:40.000Z</time>
      </trkpt>
      <trkpt lat="45.11332" lon="5.42783">
        <ele>1290.2</ele>
        <time>2024-10-19T11:02:48.000Z</time>
      </trkpt>
      <trkpt lat="45.11336" lon="5.42771">
        <ele>1290.5</ele>
        <time>2024-10-19T11:02:59.000Z</time>
      </trkpt>
      <trkpt lat="45.11337" lon="5.42758">
        <ele>1290.7</ele>
        <time>2024-10-19T11:03:14.000Z</time>
      </trkpt>
      <trkpt lat="45.11341" lon="5.42745">
        <ele>1290.5</ele>
        <time>2024-10-19T11:03:22.000Z</time>
      </trkpt>
      <trkpt lat="45.11344" lon="5.42733">
        <ele>1290.2</ele>
        <time>2024-10-19T11:03:33.000Z</time>
      </trkpt>
      <trkpt lat="45.11346" lon="5.42719">
        <ele>1289.7</ele>
        <time>2024-10-19T11:03:46.000Z</time>
      </trkpt>
      <trkpt lat="45.11349" lon="5.42705">
        <ele>1289.2</ele>
        <time>2024-10-19T11:03:55.000Z</time>
      </trkpt>
      <trkpt lat="45.11347" lon="5.42691">
        <ele>1289</ele>
        <time>2024-10-19T11:04:04.000Z</time>
      </trkpt>
      <trkpt lat="45.11345" lon="5.42678">
        <ele>1288.4</ele>
        <time>2024-10-19T11:04:14.000Z</time>
      </trkpt>
      <trkpt lat="45.11344" lon="5.42665">
        <ele>1287.2</ele>
        <time>2024-10-19T11:04:26.000Z</time>
      </trkpt>
      <trkpt lat="45.11345" lon="5.42651">
        <ele>1286.6</ele>
        <time>2024-10-19T11:04:37.000Z</time>
      </trkpt>
      <trkpt lat="45.11348" lon="5.42639">
        <ele>1286.1</ele>
        <time>2024-10-19T11:04:46.000Z</time>
      </trkpt>
      <trkpt lat="45.11355" lon="5.42629">
        <ele>1285.3</ele>
        <time>2024-10-19T11:04:57.000Z</time>
      </trkpt>
      <trkpt lat="45.11362" lon="5.42622">
        <ele>1284.3</ele>
        <time>2024-10-19T11:05:08.000Z</time>
      </trkpt>
      <trkpt lat="45.1137" lon="5.42615">
        <ele>1283.5</ele>
        <time>2024-10-19T11:05:18.000Z</time>
      </trkpt>
      <trkpt lat="45.11378" lon="5.42606">
        <ele>1282.5</ele>
        <time>2024-10-19T11:05:28.000Z</time>
      </trkpt>
      <trkpt lat="45.11385" lon="5.42598">
        <ele>1281.7</ele>
        <time>2024-10-19T11:05:52.000Z</time>
      </trkpt>
      <trkpt lat="45.11393" lon="5.42591">
        <ele>1280.9</ele>
        <time>2024-10-19T11:06:02.000Z</time>
      </trkpt>
      <trkpt lat="45.114" lon="5.42583">
        <ele>1280.2</ele>
        <time>2024-10-19T11:06:11.000Z</time>
      </trkpt>
      <trkpt lat="45.11408" lon="5.42577">
        <ele>1279.4</ele>
        <time>2024-10-19T11:06:20.000Z</time>
      </trkpt>
      <trkpt lat="45.11416" lon="5.42568">
        <ele>1278.8</ele>
        <time>2024-10-19T11:06:29.000Z</time>
      </trkpt>
      <trkpt lat="45.11424" lon="5.42561">
        <ele>1278.1</ele>
        <time>2024-10-19T11:06:37.000Z</time>
      </trkpt>
      <trkpt lat="45.1143" lon="5.42551">
        <ele>1277.8</ele>
        <time>2024-10-19T11:06:45.000Z</time>
      </trkpt>
      <trkpt lat="45.11434" lon="5.4254">
        <ele>1277.3</ele>
        <time>2024-10-19T11:06:53.000Z</time>
      </trkpt>
      <trkpt lat="45.11437" lon="5.42527">
        <ele>1276.9</ele>
        <time>2024-10-19T11:07:01.000Z</time>
      </trkpt>
      <trkpt lat="45.11437" lon="5.42514">
        <ele>1276.6</ele>
        <time>2024-10-19T11:07:09.000Z</time>
      </trkpt>
      <trkpt lat="45.11438" lon="5.425">
        <ele>1275.9</ele>
        <time>2024-10-19T11:07:18.000Z</time>
      </trkpt>
      <trkpt lat="45.11437" lon="5.42487">
        <ele>1275.4</ele>
        <time>2024-10-19T11:07:26.000Z</time>
      </trkpt>
      <trkpt lat="45.11436" lon="5.42473">
        <ele>1275.1</ele>
        <time>2024-10-19T11:07:36.000Z</time>
      </trkpt>
      <trkpt lat="45.11433" lon="5.42461">
        <ele>1274.7</ele>
        <time>2024-10-19T11:07:48.000Z</time>
      </trkpt>
      <trkpt lat="45.11432" lon="5.42448">
        <ele>1275.3</ele>
        <time>2024-10-19T11:07:57.000Z</time>
      </trkpt>
      <trkpt lat="45.11434" lon="5.42436">
        <ele>1274.6</ele>
        <time>2024-10-19T11:08:06.000Z</time>
      </trkpt>
      <trkpt lat="45.11437" lon="5.42422">
        <ele>1274.1</ele>
        <time>2024-10-19T11:08:15.000Z</time>
      </trkpt>
      <trkpt lat="45.11439" lon="5.42408">
        <ele>1273.5</ele>
        <time>2024-10-19T11:08:24.000Z</time>
      </trkpt>
      <trkpt lat="45.11438" lon="5.42395">
        <ele>1273.1</ele>
        <time>2024-10-19T11:08:33.000Z</time>
      </trkpt>
      <trkpt lat="45.11437" lon="5.42382">
        <ele>1272.6</ele>
        <time>2024-10-19T11:08:41.000Z</time>
      </trkpt>
      <trkpt lat="45.11436" lon="5.42368">
        <ele>1272.2</ele>
        <time>2024-10-19T11:08:51.000Z</time>
      </trkpt>
      <trkpt lat="45.11436" lon="5.42354">
        <ele>1271.5</ele>
        <time>2024-10-19T11:09:00.000Z</time>
      </trkpt>
      <trkpt lat="45.11437" lon="5.4234">
        <ele>1270.8</ele>
        <time>2024-10-19T11:09:09.000Z</time>
      </trkpt>
      <trkpt lat="45.11438" lon="5.42326">
        <ele>1270</ele>
        <time>2024-10-19T11:09:19.000Z</time>
      </trkpt>
      <trkpt lat="45.11442" lon="5.42313">
        <ele>1269.4</ele>
        <time>2024-10-19T11:09:28.000Z</time>
      </trkpt>
      <trkpt lat="45.11445" lon="5.42301">
        <ele>1269.1</ele>
        <time>2024-10-19T11:09:36.000Z</time>
      </trkpt>
      <trkpt lat="45.11449" lon="5.42287">
        <ele>1268.6</ele>
        <time>2024-10-19T11:09:45.000Z</time>
      </trkpt>
      <trkpt lat="45.11452" lon="5.42275">
        <ele>1268.3</ele>
        <time>2024-10-19T11:09:53.000Z</time>
      </trkpt>
      <trkpt lat="45.11455" lon="5.42263">
        <ele>1267.6</ele>
        <time>2024-10-19T11:10:02.000Z</time>
      </trkpt>
      <trkpt lat="45.11458" lon="5.4225">
        <ele>1267.2</ele>
        <time>2024-10-19T11:10:11.000Z</time>
      </trkpt>
      <trkpt lat="45.1146" lon="5.42236">
        <ele>1266.9</ele>
        <time>2024-10-19T11:10:20.000Z</time>
      </trkpt>
      <trkpt lat="45.11462" lon="5.42224">
        <ele>1266.5</ele>
        <time>2024-10-19T11:10:29.000Z</time>
      </trkpt>
      <trkpt lat="45.11464" lon="5.4221">
        <ele>1265.9</ele>
        <time>2024-10-19T11:10:39.000Z</time>
      </trkpt>
      <trkpt lat="45.11464" lon="5.42197">
        <ele>1265.7</ele>
        <time>2024-10-19T11:10:47.000Z</time>
      </trkpt>
      <trkpt lat="45.11462" lon="5.42183">
        <ele>1265.1</ele>
        <time>2024-10-19T11:10:56.000Z</time>
      </trkpt>
      <trkpt lat="45.11464" lon="5.4217">
        <ele>1264.9</ele>
        <time>2024-10-19T11:11:11.000Z</time>
      </trkpt>
      <trkpt lat="45.11467" lon="5.42158">
        <ele>1263.9</ele>
        <time>2024-10-19T11:11:30.000Z</time>
      </trkpt>
      <trkpt lat="45.11469" lon="5.42145">
        <ele>1262.5</ele>
        <time>2024-10-19T11:11:43.000Z</time>
      </trkpt>
      <trkpt lat="45.11472" lon="5.42133">
        <ele>1260.4</ele>
        <time>2024-10-19T11:11:59.000Z</time>
      </trkpt>
      <trkpt lat="45.11469" lon="5.4212">
        <ele>1257.2</ele>
        <time>2024-10-19T11:12:28.000Z</time>
      </trkpt>
      <trkpt lat="45.11465" lon="5.42108">
        <ele>1254.7</ele>
        <time>2024-10-19T11:12:49.000Z</time>
      </trkpt>
      <trkpt lat="45.11464" lon="5.42095">
        <ele>1252.7</ele>
        <time>2024-10-19T11:13:10.000Z</time>
      </trkpt>
      <trkpt lat="45.11466" lon="5.42082">
        <ele>1250</ele>
        <time>2024-10-19T11:13:32.000Z</time>
      </trkpt>
      <trkpt lat="45.1147" lon="5.4207">
        <ele>1248.1</ele>
        <time>2024-10-19T11:13:46.000Z</time>
      </trkpt>
      <trkpt lat="45.11474" lon="5.42059">
        <ele>1246.8</ele>
        <time>2024-10-19T11:14:04.000Z</time>
      </trkpt>
      <trkpt lat="45.1148" lon="5.42048">
        <ele>1245.4</ele>
        <time>2024-10-19T11:14:17.000Z</time>
      </trkpt>
      <trkpt lat="45.11482" lon="5.42036">
        <ele>1243.6</ele>
        <time>2024-10-19T11:14:29.000Z</time>
      </trkpt>
      <trkpt lat="45.11483" lon="5.42023">
        <ele>1241.7</ele>
        <time>2024-10-19T11:14:49.000Z</time>
      </trkpt>
      <trkpt lat="45.11486" lon="5.4201">
        <ele>1239.9</ele>
        <time>2024-10-19T11:15:25.000Z</time>
      </trkpt>
      <trkpt lat="45.11487" lon="5.41997">
        <ele>1236.9</ele>
        <time>2024-10-19T11:15:53.000Z</time>
      </trkpt>
      <trkpt lat="45.11492" lon="5.41986">
        <ele>1234.6</ele>
        <time>2024-10-19T11:17:55.000Z</time>
      </trkpt>
      <trkpt lat="45.11499" lon="5.41978">
        <ele>1233.5</ele>
        <time>2024-10-19T11:18:06.000Z</time>
      </trkpt>
      <trkpt lat="45.11507" lon="5.41972">
        <ele>1231.5</ele>
        <time>2024-10-19T11:18:24.000Z</time>
      </trkpt>
      <trkpt lat="45.11516" lon="5.41966">
        <ele>1229.2</ele>
        <time>2024-10-19T11:18:44.000Z</time>
      </trkpt>
      <trkpt lat="45.11524" lon="5.41958">
        <ele>1227.9</ele>
        <time>2024-10-19T11:18:54.000Z</time>
      </trkpt>
      <trkpt lat="45.11532" lon="5.41951">
        <ele>1226.8</ele>
        <time>2024-10-19T11:19:03.000Z</time>
      </trkpt>
      <trkpt lat="45.1154" lon="5.41943">
        <ele>1223.8</ele>
        <time>2024-10-19T11:19:42.000Z</time>
      </trkpt>
      <trkpt lat="45.11549" lon="5.41936">
        <ele>1220.9</ele>
        <time>2024-10-19T11:20:06.000Z</time>
      </trkpt>
      <trkpt lat="45.11558" lon="5.41933">
        <ele>1219.6</ele>
        <time>2024-10-19T11:20:18.000Z</time>
      </trkpt>
      <trkpt lat="45.11567" lon="5.41928">
        <ele>1217.4</ele>
        <time>2024-10-19T11:20:36.000Z</time>
      </trkpt>
      <trkpt lat="45.11576" lon="5.41923">
        <ele>1215.1</ele>
        <time>2024-10-19T11:20:53.000Z</time>
      </trkpt>
      <trkpt lat="45.11585" lon="5.41925">
        <ele>1212.6</ele>
        <time>2024-10-19T11:21:41.000Z</time>
      </trkpt>
      <trkpt lat="45.11582" lon="5.41938">
        <ele>1212.3</ele>
        <time>2024-10-19T11:22:08.000Z</time>
      </trkpt>
      <trkpt lat="45.11592" lon="5.41935">
        <ele>1212.2</ele>
        <time>2024-10-19T11:22:58.000Z</time>
      </trkpt>
      <trkpt lat="45.11601" lon="5.41933">
        <ele>1212.1</ele>
        <time>2024-10-19T11:23:24.000Z</time>
      </trkpt>
      <trkpt lat="45.1161" lon="5.41935">
        <ele>1211.3</ele>
        <time>2024-10-19T11:23:52.000Z</time>
      </trkpt>
      <trkpt lat="45.11619" lon="5.41935">
        <ele>1209.9</ele>
        <time>2024-10-19T11:24:11.000Z</time>
      </trkpt>
      <trkpt lat="45.11628" lon="5.41936">
        <ele>1209.3</ele>
        <time>2024-10-19T11:24:24.000Z</time>
      </trkpt>
      <trkpt lat="45.11638" lon="5.4194">
        <ele>1208.9</ele>
        <time>2024-10-19T11:24:41.000Z</time>
      </trkpt>
      <trkpt lat="45.11647" lon="5.4194">
        <ele>1208.3</ele>
        <time>2024-10-19T11:24:53.000Z</time>
      </trkpt>
      <trkpt lat="45.11656" lon="5.41941">
        <ele>1207.4</ele>
        <time>2024-10-19T11:25:07.000Z</time>
      </trkpt>
      <trkpt lat="45.11665" lon="5.41942">
        <ele>1205.5</ele>
        <time>2024-10-19T11:25:23.000Z</time>
      </trkpt>
      <trkpt lat="45.11674" lon="5.41944">
        <ele>1204</ele>
        <time>2024-10-19T11:25:37.000Z</time>
      </trkpt>
      <trkpt lat="45.11684" lon="5.41947">
        <ele>1202.8</ele>
        <time>2024-10-19T11:25:48.000Z</time>
      </trkpt>
      <trkpt lat="45.11693" lon="5.41948">
        <ele>1200.9</ele>
        <time>2024-10-19T11:26:02.000Z</time>
      </trkpt>
      <trkpt lat="45.11701" lon="5.41955">
        <ele>1199.3</ele>
        <time>2024-10-19T11:26:16.000Z</time>
      </trkpt>
      <trkpt lat="45.1171" lon="5.41956">
        <ele>1199</ele>
        <time>2024-10-19T11:26:25.000Z</time>
      </trkpt>
      <trkpt lat="45.11719" lon="5.41958">
        <ele>1198.9</ele>
        <time>2024-10-19T11:26:50.000Z</time>
      </trkpt>
      <trkpt lat="45.11728" lon="5.41953">
        <ele>1197.9</ele>
        <time>2024-10-19T11:27:48.000Z</time>
      </trkpt>
      <trkpt lat="45.11737" lon="5.41948">
        <ele>1196.8</ele>
        <time>2024-10-19T11:28:02.000Z</time>
      </trkpt>
      <trkpt lat="45.11745" lon="5.41942">
        <ele>1196</ele>
        <time>2024-10-19T11:28:12.000Z</time>
      </trkpt>
      <trkpt lat="45.11751" lon="5.41932">
        <ele>1195.9</ele>
        <time>2024-10-19T11:28:20.000Z</time>
      </trkpt>
      <trkpt lat="45.11758" lon="5.41923">
        <ele>1196</ele>
        <time>2024-10-19T11:28:30.000Z</time>
      </trkpt>
      <trkpt lat="45.11765" lon="5.4191">
        <ele>1195.9</ele>
        <time>2024-10-19T11:28:43.000Z</time>
      </trkpt>
      <trkpt lat="45.11771" lon="5.419">
        <ele>1195.7</ele>
        <time>2024-10-19T11:28:55.000Z</time>
      </trkpt>
      <trkpt lat="45.1178" lon="5.41895">
        <ele>1195.3</ele>
        <time>2024-10-19T11:29:06.000Z</time>
      </trkpt>
      <trkpt lat="45.11789" lon="5.41894">
        <ele>1195.7</ele>
        <time>2024-10-19T11:29:22.000Z</time>
      </trkpt>
      <trkpt lat="45.11797" lon="5.41889">
        <ele>1194.7</ele>
        <time>2024-10-19T11:30:22.000Z</time>
      </trkpt>
      <trkpt lat="45.11807" lon="5.41888">
        <ele>1193.5</ele>
        <time>2024-10-19T11:30:40.000Z</time>
      </trkpt>
      <trkpt lat="45.11816" lon="5.41884">
        <ele>1192.1</ele>
        <time>2024-10-19T11:30:55.000Z</time>
      </trkpt>
      <trkpt lat="45.11826" lon="5.4188">
        <ele>1191</ele>
        <time>2024-10-19T11:31:06.000Z</time>
      </trkpt>
      <trkpt lat="45.11835" lon="5.41878">
        <ele>1189.7</ele>
        <time>2024-10-19T11:31:18.000Z</time>
      </trkpt>
      <trkpt lat="45.11844" lon="5.41875">
        <ele>1187.8</ele>
        <time>2024-10-19T11:31:32.000Z</time>
      </trkpt>
      <trkpt lat="45.11854" lon="5.41874">
        <ele>1187.2</ele>
        <time>2024-10-19T11:31:54.000Z</time>
      </trkpt>
      <trkpt lat="45.11863" lon="5.41874">
        <ele>1187</ele>
        <time>2024-10-19T11:32:03.000Z</time>
      </trkpt>
      <trkpt lat="45.11871" lon="5.41876">
        <ele>1186.8</ele>
        <time>2024-10-19T11:32:12.000Z</time>
      </trkpt>
      <trkpt lat="45.11881" lon="5.41877">
        <ele>1186.5</ele>
        <time>2024-10-19T11:32:24.000Z</time>
      </trkpt>
      <trkpt lat="45.1189" lon="5.41875">
        <ele>1185</ele>
        <time>2024-10-19T11:32:35.000Z</time>
      </trkpt>
      <trkpt lat="45.11899" lon="5.41876">
        <ele>1185</ele>
        <time>2024-10-19T11:32:48.000Z</time>
      </trkpt>
      <trkpt lat="45.11909" lon="5.41874">
        <ele>1184.2</ele>
        <time>2024-10-19T11:33:20.000Z</time>
      </trkpt>
      <trkpt lat="45.11919" lon="5.41877">
        <ele>1183.6</ele>
        <time>2024-10-19T11:33:36.000Z</time>
      </trkpt>
      <trkpt lat="45.11928" lon="5.4188">
        <ele>1183.5</ele>
        <time>2024-10-19T11:33:50.000Z</time>
      </trkpt>
      <trkpt lat="45.11937" lon="5.41886">
        <ele>1182.5</ele>
        <time>2024-10-19T11:34:07.000Z</time>
      </trkpt>
      <trkpt lat="45.11945" lon="5.41892">
        <ele>1182.2</ele>
        <time>2024-10-19T11:34:15.000Z</time>
      </trkpt>
      <trkpt lat="45.11954" lon="5.41895">
        <ele>1181.6</ele>
        <time>2024-10-19T11:34:22.000Z</time>
      </trkpt>
      <trkpt lat="45.11963" lon="5.41895">
        <ele>1180.6</ele>
        <time>2024-10-19T11:34:32.000Z</time>
      </trkpt>
      <trkpt lat="45.11972" lon="5.41894">
        <ele>1179.8</ele>
        <time>2024-10-19T11:34:39.000Z</time>
      </trkpt>
      <trkpt lat="45.11982" lon="5.41891">
        <ele>1178.4</ele>
        <time>2024-10-19T11:34:48.000Z</time>
      </trkpt>
      <trkpt lat="45.11991" lon="5.41888">
        <ele>1176.3</ele>
        <time>2024-10-19T11:35:01.000Z</time>
      </trkpt>
      <trkpt lat="45.12001" lon="5.41887">
        <ele>1175.3</ele>
        <time>2024-10-19T11:35:10.000Z</time>
      </trkpt>
      <trkpt lat="45.1201" lon="5.41885">
        <ele>1175.3</ele>
        <time>2024-10-19T11:35:19.000Z</time>
      </trkpt>
      <trkpt lat="45.12019" lon="5.41886">
        <ele>1174.4</ele>
        <time>2024-10-19T11:35:26.000Z</time>
      </trkpt>
      <trkpt lat="45.12027" lon="5.41877">
        <ele>1172.4</ele>
        <time>2024-10-19T11:35:42.000Z</time>
      </trkpt>
      <trkpt lat="45.1203" lon="5.41865">
        <ele>1171.2</ele>
        <time>2024-10-19T11:35:54.000Z</time>
      </trkpt>
      <trkpt lat="45.12037" lon="5.41875">
        <ele>1171.5</ele>
        <time>2024-10-19T11:36:14.000Z</time>
      </trkpt>
      <trkpt lat="45.12044" lon="5.41884">
        <ele>1171.9</ele>
        <time>2024-10-19T11:36:25.000Z</time>
      </trkpt>
      <trkpt lat="45.12042" lon="5.41897">
        <ele>1173</ele>
        <time>2024-10-19T11:36:49.000Z</time>
      </trkpt>
      <trkpt lat="45.12046" lon="5.41909">
        <ele>1173.6</ele>
        <time>2024-10-19T11:36:59.000Z</time>
      </trkpt>
      <trkpt lat="45.12053" lon="5.41918">
        <ele>1174</ele>
        <time>2024-10-19T11:37:11.000Z</time>
      </trkpt>
      <trkpt lat="45.12058" lon="5.4193">
        <ele>1174.7</ele>
        <time>2024-10-19T11:37:22.000Z</time>
      </trkpt>
      <trkpt lat="45.12057" lon="5.41917">
        <ele>1174.5</ele>
        <time>2024-10-19T11:37:47.000Z</time>
      </trkpt>
      <trkpt lat="45.12052" lon="5.41906">
        <ele>1173.4</ele>
        <time>2024-10-19T11:37:56.000Z</time>
      </trkpt>
      <trkpt lat="45.12048" lon="5.41894">
        <ele>1172</ele>
        <time>2024-10-19T11:38:09.000Z</time>
      </trkpt>
      <trkpt lat="45.12041" lon="5.41884">
        <ele>1172.3</ele>
        <time>2024-10-19T11:38:20.000Z</time>
      </trkpt>
      <trkpt lat="45.12034" lon="5.4187">
        <ele>1171.7</ele>
        <time>2024-10-19T11:38:30.000Z</time>
      </trkpt>
      <trkpt lat="45.12031" lon="5.41857">
        <ele>1171.2</ele>
        <time>2024-10-19T11:38:39.000Z</time>
      </trkpt>
      <trkpt lat="45.12028" lon="5.41843">
        <ele>1170.6</ele>
        <time>2024-10-19T11:38:48.000Z</time>
      </trkpt>
      <trkpt lat="45.12026" lon="5.4183">
        <ele>1169.9</ele>
        <time>2024-10-19T11:38:56.000Z</time>
      </trkpt>
      <trkpt lat="45.12027" lon="5.41817">
        <ele>1169.4</ele>
        <time>2024-10-19T11:39:04.000Z</time>
      </trkpt>
      <trkpt lat="45.12032" lon="5.41806">
        <ele>1169.1</ele>
        <time>2024-10-19T11:39:14.000Z</time>
      </trkpt>
      <trkpt lat="45.12041" lon="5.41801">
        <ele>1169.8</ele>
        <time>2024-10-19T11:39:30.000Z</time>
      </trkpt>
      <trkpt lat="45.1205" lon="5.41804">
        <ele>1170.5</ele>
        <time>2024-10-19T11:39:42.000Z</time>
      </trkpt>
      <trkpt lat="45.12058" lon="5.41811">
        <ele>1171.4</ele>
        <time>2024-10-19T11:39:59.000Z</time>
      </trkpt>
      <trkpt lat="45.12066" lon="5.41817">
        <ele>1171.8</ele>
        <time>2024-10-19T11:40:09.000Z</time>
      </trkpt>
      <trkpt lat="45.12074" lon="5.41824">
        <ele>1172.5</ele>
        <time>2024-10-19T11:40:21.000Z</time>
      </trkpt>
      <trkpt lat="45.12083" lon="5.4183">
        <ele>1172.9</ele>
        <time>2024-10-19T11:40:33.000Z</time>
      </trkpt>
      <trkpt lat="45.12092" lon="5.41833">
        <ele>1173.3</ele>
        <time>2024-10-19T11:40:42.000Z</time>
      </trkpt>
      <trkpt lat="45.12101" lon="5.41833">
        <ele>1173.5</ele>
        <time>2024-10-19T11:40:50.000Z</time>
      </trkpt>
      <trkpt lat="45.12113" lon="5.41834">
        <ele>1174</ele>
        <time>2024-10-19T11:41:01.000Z</time>
      </trkpt>
      <trkpt lat="45.12123" lon="5.41833">
        <ele>1174.5</ele>
        <time>2024-10-19T11:41:10.000Z</time>
      </trkpt>
      <trkpt lat="45.12133" lon="5.41834">
        <ele>1175.5</ele>
        <time>2024-10-19T11:41:22.000Z</time>
      </trkpt>
      <trkpt lat="45.12142" lon="5.41838">
        <ele>1175.4</ele>
        <time>2024-10-19T11:41:37.000Z</time>
      </trkpt>
      <trkpt lat="45.12152" lon="5.41841">
        <ele>1175.9</ele>
        <time>2024-10-19T11:41:46.000Z</time>
      </trkpt>
      <trkpt lat="45.12161" lon="5.4184">
        <ele>1176.5</ele>
        <time>2024-10-19T11:41:55.000Z</time>
      </trkpt>
      <trkpt lat="45.12172" lon="5.41838">
        <ele>1176.9</ele>
        <time>2024-10-19T11:42:04.000Z</time>
      </trkpt>
      <trkpt lat="45.12181" lon="5.41835">
        <ele>1177.6</ele>
        <time>2024-10-19T11:42:12.000Z</time>
      </trkpt>
      <trkpt lat="45.1219" lon="5.41833">
        <ele>1178</ele>
        <time>2024-10-19T11:42:21.000Z</time>
      </trkpt>
      <trkpt lat="45.12201" lon="5.41835">
        <ele>1178.4</ele>
        <time>2024-10-19T11:42:33.000Z</time>
      </trkpt>
      <trkpt lat="45.12213" lon="5.4184">
        <ele>1178.7</ele>
        <time>2024-10-19T11:42:45.000Z</time>
      </trkpt>
      <trkpt lat="45.12221" lon="5.41848">
        <ele>1178.7</ele>
        <time>2024-10-19T11:42:55.000Z</time>
      </trkpt>
      <trkpt lat="45.12228" lon="5.41857">
        <ele>1179</ele>
        <time>2024-10-19T11:43:06.000Z</time>
      </trkpt>
      <trkpt lat="45.12232" lon="5.41869">
        <ele>1179.5</ele>
        <time>2024-10-19T11:43:17.000Z</time>
      </trkpt>
      <trkpt lat="45.12236" lon="5.41882">
        <ele>1180.1</ele>
        <time>2024-10-19T11:43:28.000Z</time>
      </trkpt>
      <trkpt lat="45.12239" lon="5.41868">
        <ele>1180.6</ele>
        <time>2024-10-19T11:44:06.000Z</time>
      </trkpt>
      <trkpt lat="45.12244" lon="5.41857">
        <ele>1180</ele>
        <time>2024-10-19T11:44:16.000Z</time>
      </trkpt>
      <trkpt lat="45.12255" lon="5.41851">
        <ele>1180.1</ele>
        <time>2024-10-19T11:44:29.000Z</time>
      </trkpt>
      <trkpt lat="45.12264" lon="5.41846">
        <ele>1180.3</ele>
        <time>2024-10-19T11:44:38.000Z</time>
      </trkpt>
      <trkpt lat="45.12273" lon="5.41845">
        <ele>1181.1</ele>
        <time>2024-10-19T11:44:48.000Z</time>
      </trkpt>
      <trkpt lat="45.12283" lon="5.41847">
        <ele>1181.8</ele>
        <time>2024-10-19T11:45:00.000Z</time>
      </trkpt>
      <trkpt lat="45.12292" lon="5.41846">
        <ele>1182.5</ele>
        <time>2024-10-19T11:45:10.000Z</time>
      </trkpt>
      <trkpt lat="45.12299" lon="5.41837">
        <ele>1183.4</ele>
        <time>2024-10-19T11:45:18.000Z</time>
      </trkpt>
      <trkpt lat="45.12307" lon="5.4183">
        <ele>1184</ele>
        <time>2024-10-19T11:45:29.000Z</time>
      </trkpt>
      <trkpt lat="45.12316" lon="5.41823">
        <ele>1183.9</ele>
        <time>2024-10-19T11:45:57.000Z</time>
      </trkpt>
      <trkpt lat="45.12322" lon="5.41814">
        <ele>1184.5</ele>
        <time>2024-10-19T11:46:10.000Z</time>
      </trkpt>
      <trkpt lat="45.12332" lon="5.41811">
        <ele>1185.1</ele>
        <time>2024-10-19T11:46:21.000Z</time>
      </trkpt>
      <trkpt lat="45.1234" lon="5.41815">
        <ele>1185.2</ele>
        <time>2024-10-19T11:46:33.000Z</time>
      </trkpt>
      <trkpt lat="45.12349" lon="5.4182">
        <ele>1185.2</ele>
        <time>2024-10-19T11:46:44.000Z</time>
      </trkpt>
      <trkpt lat="45.12359" lon="5.41823">
        <ele>1185.7</ele>
        <time>2024-10-19T11:46:57.000Z</time>
      </trkpt>
      <trkpt lat="45.12367" lon="5.41827">
        <ele>1187</ele>
        <time>2024-10-19T11:47:10.000Z</time>
      </trkpt>
      <trkpt lat="45.12374" lon="5.41837">
        <ele>1189.5</ele>
        <time>2024-10-19T11:47:30.000Z</time>
      </trkpt>
      <trkpt lat="45.12381" lon="5.41845">
        <ele>1190.8</ele>
        <time>2024-10-19T11:47:49.000Z</time>
      </trkpt>
      <trkpt lat="45.1239" lon="5.41847">
        <ele>1191.8</ele>
        <time>2024-10-19T11:48:05.000Z</time>
      </trkpt>
      <trkpt lat="45.12399" lon="5.4185">
        <ele>1192.8</ele>
        <time>2024-10-19T11:48:19.000Z</time>
      </trkpt>
      <trkpt lat="45.12409" lon="5.4185">
        <ele>1194.5</ele>
        <time>2024-10-19T11:48:38.000Z</time>
      </trkpt>
      <trkpt lat="45.12417" lon="5.41845">
        <ele>1195.9</ele>
        <time>2024-10-19T11:48:55.000Z</time>
      </trkpt>
      <trkpt lat="45.12425" lon="5.41837">
        <ele>1196.8</ele>
        <time>2024-10-19T11:49:09.000Z</time>
      </trkpt>
      <trkpt lat="45.12434" lon="5.41837">
        <ele>1197.4</ele>
        <time>2024-10-19T11:49:22.000Z</time>
      </trkpt>
      <trkpt lat="45.12443" lon="5.41836">
        <ele>1198.1</ele>
        <time>2024-10-19T11:49:33.000Z</time>
      </trkpt>
      <trkpt lat="45.12453" lon="5.41838">
        <ele>1198.2</ele>
        <time>2024-10-19T11:49:42.000Z</time>
      </trkpt>
      <trkpt lat="45.12462" lon="5.41842">
        <ele>1199.3</ele>
        <time>2024-10-19T11:49:54.000Z</time>
      </trkpt>
      <trkpt lat="45.12468" lon="5.41852">
        <ele>1199.2</ele>
        <time>2024-10-19T11:50:21.000Z</time>
      </trkpt>
      <trkpt lat="45.12476" lon="5.41859">
        <ele>1200.5</ele>
        <time>2024-10-19T11:50:38.000Z</time>
      </trkpt>
      <trkpt lat="45.12484" lon="5.41864">
        <ele>1201.7</ele>
        <time>2024-10-19T11:50:51.000Z</time>
      </trkpt>
      <trkpt lat="45.12493" lon="5.41869">
        <ele>1204.1</ele>
        <time>2024-10-19T11:51:10.000Z</time>
      </trkpt>
      <trkpt lat="45.12503" lon="5.41867">
        <ele>1206.9</ele>
        <time>2024-10-19T11:51:28.000Z</time>
      </trkpt>
      <trkpt lat="45.12512" lon="5.41861">
        <ele>1208.5</ele>
        <time>2024-10-19T11:51:42.000Z</time>
      </trkpt>
      <trkpt lat="45.12521" lon="5.41857">
        <ele>1210.5</ele>
        <time>2024-10-19T11:51:58.000Z</time>
      </trkpt>
      <trkpt lat="45.1253" lon="5.41858">
        <ele>1212</ele>
        <time>2024-10-19T11:52:10.000Z</time>
      </trkpt>
      <trkpt lat="45.12539" lon="5.41863">
        <ele>1213</ele>
        <time>2024-10-19T11:52:26.000Z</time>
      </trkpt>
      <trkpt lat="45.12547" lon="5.41868">
        <ele>1213.9</ele>
        <time>2024-10-19T11:52:40.000Z</time>
      </trkpt>
      <trkpt lat="45.12555" lon="5.41874">
        <ele>1214.9</ele>
        <time>2024-10-19T11:52:53.000Z</time>
      </trkpt>
      <trkpt lat="45.12561" lon="5.41884">
        <ele>1215.8</ele>
        <time>2024-10-19T11:53:11.000Z</time>
      </trkpt>
      <trkpt lat="45.12569" lon="5.41878">
        <ele>1216.2</ele>
        <time>2024-10-19T11:53:56.000Z</time>
      </trkpt>
      <trkpt lat="45.12577" lon="5.41872">
        <ele>1215.2</ele>
        <time>2024-10-19T11:56:06.000Z</time>
      </trkpt>
      <trkpt lat="45.12585" lon="5.41866">
        <ele>1214.3</ele>
        <time>2024-10-19T11:56:16.000Z</time>
      </trkpt>
      <trkpt lat="45.12593" lon="5.41859">
        <ele>1213.1</ele>
        <time>2024-10-19T11:56:26.000Z</time>
      </trkpt>
      <trkpt lat="45.12602" lon="5.41855">
        <ele>1212.1</ele>
        <time>2024-10-19T11:56:35.000Z</time>
      </trkpt>
      <trkpt lat="45.12611" lon="5.41858">
        <ele>1210.8</ele>
        <time>2024-10-19T11:56:46.000Z</time>
      </trkpt>
      <trkpt lat="45.12619" lon="5.41866">
        <ele>1209.9</ele>
        <time>2024-10-19T11:56:56.000Z</time>
      </trkpt>
      <trkpt lat="45.12626" lon="5.41875">
        <ele>1209.7</ele>
        <time>2024-10-19T11:57:07.000Z</time>
      </trkpt>
      <trkpt lat="45.12632" lon="5.41886">
        <ele>1209.4</ele>
        <time>2024-10-19T11:57:17.000Z</time>
      </trkpt>
      <trkpt lat="45.12639" lon="5.41896">
        <ele>1209.7</ele>
        <time>2024-10-19T11:57:27.000Z</time>
      </trkpt>
      <trkpt lat="45.12644" lon="5.41905">
        <ele>1209.7</ele>
        <time>2024-10-19T11:57:37.000Z</time>
      </trkpt>
      <trkpt lat="45.12651" lon="5.41916">
        <ele>1209.1</ele>
        <time>2024-10-19T11:57:47.000Z</time>
      </trkpt>
      <trkpt lat="45.12655" lon="5.41928">
        <ele>1210.1</ele>
        <time>2024-10-19T11:57:56.000Z</time>
      </trkpt>
      <trkpt lat="45.12662" lon="5.41936">
        <ele>1209.7</ele>
        <time>2024-10-19T11:58:04.000Z</time>
      </trkpt>
      <trkpt lat="45.1267" lon="5.41945">
        <ele>1209.5</ele>
        <time>2024-10-19T11:58:12.000Z</time>
      </trkpt>
      <trkpt lat="45.12677" lon="5.41953">
        <ele>1209.2</ele>
        <time>2024-10-19T11:58:20.000Z</time>
      </trkpt>
      <trkpt lat="45.12684" lon="5.41962">
        <ele>1208.1</ele>
        <time>2024-10-19T11:58:32.000Z</time>
      </trkpt>
      <trkpt lat="45.12692" lon="5.4197">
        <ele>1207.8</ele>
        <time>2024-10-19T11:58:42.000Z</time>
      </trkpt>
      <trkpt lat="45.127" lon="5.41978">
        <ele>1207.3</ele>
        <time>2024-10-19T11:58:52.000Z</time>
      </trkpt>
      <trkpt lat="45.12705" lon="5.41989">
        <ele>1206.6</ele>
        <time>2024-10-19T11:59:06.000Z</time>
      </trkpt>
      <trkpt lat="45.12696" lon="5.4199">
        <ele>1206.8</ele>
        <time>2024-10-19T11:59:34.000Z</time>
      </trkpt>
      <trkpt lat="45.12703" lon="5.41981">
        <ele>1206.6</ele>
        <time>2024-10-19T12:04:24.000Z</time>
      </trkpt>
      <trkpt lat="45.12712" lon="5.41986">
        <ele>1206.2</ele>
        <time>2024-10-19T12:04:36.000Z</time>
      </trkpt>
      <trkpt lat="45.1272" lon="5.41992">
        <ele>1205.8</ele>
        <time>2024-10-19T12:05:07.000Z</time>
      </trkpt>
      <trkpt lat="45.12728" lon="5.42001">
        <ele>1205.1</ele>
        <time>2024-10-19T12:05:34.000Z</time>
      </trkpt>
      <trkpt lat="45.12736" lon="5.42006">
        <ele>1204.5</ele>
        <time>2024-10-19T12:05:59.000Z</time>
      </trkpt>
      <trkpt lat="45.12745" lon="5.42011">
        <ele>1204</ele>
        <time>2024-10-19T12:06:14.000Z</time>
      </trkpt>
      <trkpt lat="45.12747" lon="5.42024">
        <ele>1203.4</ele>
        <time>2024-10-19T12:06:39.000Z</time>
      </trkpt>
      <trkpt lat="45.12754" lon="5.42033">
        <ele>1203.2</ele>
        <time>2024-10-19T12:06:55.000Z</time>
      </trkpt>
      <trkpt lat="45.1276" lon="5.42043">
        <ele>1203.4</ele>
        <time>2024-10-19T12:07:04.000Z</time>
      </trkpt>
      <trkpt lat="45.12767" lon="5.42053">
        <ele>1204</ele>
        <time>2024-10-19T12:07:15.000Z</time>
      </trkpt>
      <trkpt lat="45.1277" lon="5.42065">
        <ele>1204.1</ele>
        <time>2024-10-19T12:07:26.000Z</time>
      </trkpt>
      <trkpt lat="45.12766" lon="5.42077">
        <ele>1204.3</ele>
        <time>2024-10-19T12:07:35.000Z</time>
      </trkpt>
      <trkpt lat="45.12762" lon="5.42089">
        <ele>1204</ele>
        <time>2024-10-19T12:07:44.000Z</time>
      </trkpt>
      <trkpt lat="45.12756" lon="5.42099">
        <ele>1203.4</ele>
        <time>2024-10-19T12:07:52.000Z</time>
      </trkpt>
      <trkpt lat="45.1275" lon="5.42109">
        <ele>1202.9</ele>
        <time>2024-10-19T12:08:01.000Z</time>
      </trkpt>
      <trkpt lat="45.12743" lon="5.42117">
        <ele>1202.5</ele>
        <time>2024-10-19T12:08:10.000Z</time>
      </trkpt>
      <trkpt lat="45.12736" lon="5.42127">
        <ele>1201.6</ele>
        <time>2024-10-19T12:08:19.000Z</time>
      </trkpt>
      <trkpt lat="45.12729" lon="5.42136">
        <ele>1200.5</ele>
        <time>2024-10-19T12:08:29.000Z</time>
      </trkpt>
      <trkpt lat="45.12738" lon="5.42135">
        <ele>1200.2</ele>
        <time>2024-10-19T12:10:01.000Z</time>
      </trkpt>
      <trkpt lat="45.12748" lon="5.42135">
        <ele>1201.1</ele>
        <time>2024-10-19T12:10:25.000Z</time>
      </trkpt>
      <trkpt lat="45.12758" lon="5.42136">
        <ele>1201.9</ele>
        <time>2024-10-19T12:10:36.000Z</time>
      </trkpt>
      <trkpt lat="45.12767" lon="5.42136">
        <ele>1202.3</ele>
        <time>2024-10-19T12:10:51.000Z</time>
      </trkpt>
      <trkpt lat="45.12776" lon="5.42138">
        <ele>1202.5</ele>
        <time>2024-10-19T12:11:11.000Z</time>
      </trkpt>
      <trkpt lat="45.12786" lon="5.42136">
        <ele>1203</ele>
        <time>2024-10-19T12:11:23.000Z</time>
      </trkpt>
      <trkpt lat="45.12795" lon="5.42134">
        <ele>1203.6</ele>
        <time>2024-10-19T12:11:37.000Z</time>
      </trkpt>
      <trkpt lat="45.12801" lon="5.42145">
        <ele>1204</ele>
        <time>2024-10-19T12:11:48.000Z</time>
      </trkpt>
      <trkpt lat="45.12805" lon="5.42156">
        <ele>1204.1</ele>
        <time>2024-10-19T12:11:58.000Z</time>
      </trkpt>
      <trkpt lat="45.1281" lon="5.42168">
        <ele>1204.4</ele>
        <time>2024-10-19T12:12:09.000Z</time>
      </trkpt>
      <trkpt lat="45.12815" lon="5.42179">
        <ele>1204.4</ele>
        <time>2024-10-19T12:12:20.000Z</time>
      </trkpt>
      <trkpt lat="45.12819" lon="5.42191">
        <ele>1204.8</ele>
        <time>2024-10-19T12:12:34.000Z</time>
      </trkpt>
      <trkpt lat="45.12824" lon="5.42202">
        <ele>1205.3</ele>
        <time>2024-10-19T12:12:45.000Z</time>
      </trkpt>
      <trkpt lat="45.1283" lon="5.42212">
        <ele>1206.2</ele>
        <time>2024-10-19T12:12:57.000Z</time>
      </trkpt>
      <trkpt lat="45.12835" lon="5.42223">
        <ele>1207</ele>
        <time>2024-10-19T12:13:08.000Z</time>
      </trkpt>
      <trkpt lat="45.12841" lon="5.42233">
        <ele>1207.6</ele>
        <time>2024-10-19T12:13:18.000Z</time>
      </trkpt>
      <trkpt lat="45.12848" lon="5.42242">
        <ele>1208.6</ele>
        <time>2024-10-19T12:13:29.000Z</time>
      </trkpt>
      <trkpt lat="45.12853" lon="5.42253">
        <ele>1209.4</ele>
        <time>2024-10-19T12:13:40.000Z</time>
      </trkpt>
      <trkpt lat="45.12859" lon="5.42264">
        <ele>1209.9</ele>
        <time>2024-10-19T12:13:50.000Z</time>
      </trkpt>
      <trkpt lat="45.12864" lon="5.42275">
        <ele>1211.1</ele>
        <time>2024-10-19T12:14:01.000Z</time>
      </trkpt>
      <trkpt lat="45.1287" lon="5.42285">
        <ele>1211.2</ele>
        <time>2024-10-19T12:14:15.000Z</time>
      </trkpt>
      <trkpt lat="45.12877" lon="5.42294">
        <ele>1211.8</ele>
        <time>2024-10-19T12:14:28.000Z</time>
      </trkpt>
      <trkpt lat="45.12885" lon="5.42302">
        <ele>1213</ele>
        <time>2024-10-19T12:14:44.000Z</time>
      </trkpt>
      <trkpt lat="45.12893" lon="5.42308">
        <ele>1210.8</ele>
        <time>2024-10-19T12:14:54.000Z</time>
      </trkpt>
      <trkpt lat="45.12902" lon="5.42314">
        <ele>1209.8</ele>
        <time>2024-10-19T12:15:04.000Z</time>
      </trkpt>
      <trkpt lat="45.12911" lon="5.42318">
        <ele>1208.6</ele>
        <time>2024-10-19T12:15:18.000Z</time>
      </trkpt>
      <trkpt lat="45.12915" lon="5.4233">
        <ele>1207.6</ele>
        <time>2024-10-19T12:15:28.000Z</time>
      </trkpt>
      <trkpt lat="45.12923" lon="5.42338">
        <ele>1206.4</ele>
        <time>2024-10-19T12:15:38.000Z</time>
      </trkpt>
      <trkpt lat="45.12927" lon="5.4235">
        <ele>1205</ele>
        <time>2024-10-19T12:15:49.000Z</time>
      </trkpt>
      <trkpt lat="45.12931" lon="5.42362">
        <ele>1204.2</ele>
        <time>2024-10-19T12:15:58.000Z</time>
      </trkpt>
      <trkpt lat="45.12934" lon="5.42374">
        <ele>1203.5</ele>
        <time>2024-10-19T12:16:07.000Z</time>
      </trkpt>
      <trkpt lat="45.12937" lon="5.42387">
        <ele>1202.9</ele>
        <time>2024-10-19T12:16:17.000Z</time>
      </trkpt>
      <trkpt lat="45.12941" lon="5.42399">
        <ele>1201.9</ele>
        <time>2024-10-19T12:16:27.000Z</time>
      </trkpt>
      <trkpt lat="45.12947" lon="5.42409">
        <ele>1201.4</ele>
        <time>2024-10-19T12:16:37.000Z</time>
      </trkpt>
      <trkpt lat="45.12954" lon="5.42418">
        <ele>1201.2</ele>
        <time>2024-10-19T12:16:46.000Z</time>
      </trkpt>
      <trkpt lat="45.12961" lon="5.42426">
        <ele>1201.1</ele>
        <time>2024-10-19T12:16:57.000Z</time>
      </trkpt>
      <trkpt lat="45.12969" lon="5.42433">
        <ele>1201.2</ele>
        <time>2024-10-19T12:17:08.000Z</time>
      </trkpt>
      <trkpt lat="45.12978" lon="5.4244">
        <ele>1202.4</ele>
        <time>2024-10-19T12:17:20.000Z</time>
      </trkpt>
      <trkpt lat="45.12985" lon="5.42447">
        <ele>1203.9</ele>
        <time>2024-10-19T12:17:32.000Z</time>
      </trkpt>
      <trkpt lat="45.12993" lon="5.42454">
        <ele>1205.4</ele>
        <time>2024-10-19T12:17:52.000Z</time>
      </trkpt>
      <trkpt lat="45.13002" lon="5.42458">
        <ele>1206.5</ele>
        <time>2024-10-19T12:18:11.000Z</time>
      </trkpt>
      <trkpt lat="45.13011" lon="5.42457">
        <ele>1207.7</ele>
        <time>2024-10-19T12:18:27.000Z</time>
      </trkpt>
      <trkpt lat="45.1302" lon="5.42462">
        <ele>1207.4</ele>
        <time>2024-10-19T12:18:40.000Z</time>
      </trkpt>
      <trkpt lat="45.13029" lon="5.42466">
        <ele>1205.6</ele>
        <time>2024-10-19T12:18:53.000Z</time>
      </trkpt>
      <trkpt lat="45.13038" lon="5.42472">
        <ele>1204</ele>
        <time>2024-10-19T12:19:06.000Z</time>
      </trkpt>
      <trkpt lat="45.13047" lon="5.4247">
        <ele>1203.1</ele>
        <time>2024-10-19T12:19:15.000Z</time>
      </trkpt>
      <trkpt lat="45.13057" lon="5.42473">
        <ele>1202.5</ele>
        <time>2024-10-19T12:19:25.000Z</time>
      </trkpt>
      <trkpt lat="45.13065" lon="5.4248">
        <ele>1201.9</ele>
        <time>2024-10-19T12:20:13.000Z</time>
      </trkpt>
      <trkpt lat="45.13069" lon="5.42493">
        <ele>1201</ele>
        <time>2024-10-19T12:20:39.000Z</time>
      </trkpt>
      <trkpt lat="45.13067" lon="5.42506">
        <ele>1199.6</ele>
        <time>2024-10-19T12:20:55.000Z</time>
      </trkpt>
      <trkpt lat="45.13068" lon="5.42519">
        <ele>1197.3</ele>
        <time>2024-10-19T12:21:12.000Z</time>
      </trkpt>
      <trkpt lat="45.13069" lon="5.42532">
        <ele>1197</ele>
        <time>2024-10-19T12:21:28.000Z</time>
      </trkpt>
      <trkpt lat="45.13073" lon="5.42544">
        <ele>1196.5</ele>
        <time>2024-10-19T12:21:39.000Z</time>
      </trkpt>
      <trkpt lat="45.13078" lon="5.42555">
        <ele>1196.3</ele>
        <time>2024-10-19T12:21:52.000Z</time>
      </trkpt>
      <trkpt lat="45.13084" lon="5.42565">
        <ele>1196.4</ele>
        <time>2024-10-19T12:22:06.000Z</time>
      </trkpt>
      <trkpt lat="45.13091" lon="5.42574">
        <ele>1196.6</ele>
        <time>2024-10-19T12:22:21.000Z</time>
      </trkpt>
      <trkpt lat="45.13093" lon="5.42587">
        <ele>1197.1</ele>
        <time>2024-10-19T12:22:37.000Z</time>
      </trkpt>
      <trkpt lat="45.13096" lon="5.42599">
        <ele>1198</ele>
        <time>2024-10-19T12:22:56.000Z</time>
      </trkpt>
      <trkpt lat="45.13093" lon="5.42611">
        <ele>1199</ele>
        <time>2024-10-19T12:23:17.000Z</time>
      </trkpt>
      <trkpt lat="45.13102" lon="5.42615">
        <ele>1198.5</ele>
        <time>2024-10-19T12:24:28.000Z</time>
      </trkpt>
      <trkpt lat="45.13111" lon="5.42615">
        <ele>1199.1</ele>
        <time>2024-10-19T12:24:42.000Z</time>
      </trkpt>
      <trkpt lat="45.1312" lon="5.42613">
        <ele>1201.3</ele>
        <time>2024-10-19T12:24:53.000Z</time>
      </trkpt>
      <trkpt lat="45.13129" lon="5.42615">
        <ele>1202.3</ele>
        <time>2024-10-19T12:25:00.000Z</time>
      </trkpt>
      <trkpt lat="45.13138" lon="5.4262">
        <ele>1203.2</ele>
        <time>2024-10-19T12:25:10.000Z</time>
      </trkpt>
      <trkpt lat="45.13147" lon="5.42623">
        <ele>1203.9</ele>
        <time>2024-10-19T12:25:21.000Z</time>
      </trkpt>
      <trkpt lat="45.13157" lon="5.42621">
        <ele>1204.4</ele>
        <time>2024-10-19T12:25:30.000Z</time>
      </trkpt>
      <trkpt lat="45.13165" lon="5.42629">
        <ele>1204.7</ele>
        <time>2024-10-19T12:25:39.000Z</time>
      </trkpt>
      <trkpt lat="45.13171" lon="5.42638">
        <ele>1204.6</ele>
        <time>2024-10-19T12:25:49.000Z</time>
      </trkpt>
      <trkpt lat="45.13177" lon="5.42649">
        <ele>1204.4</ele>
        <time>2024-10-19T12:26:00.000Z</time>
      </trkpt>
      <trkpt lat="45.13183" lon="5.4266">
        <ele>1204.3</ele>
        <time>2024-10-19T12:26:10.000Z</time>
      </trkpt>
      <trkpt lat="45.1319" lon="5.42669">
        <ele>1204.5</ele>
        <time>2024-10-19T12:26:19.000Z</time>
      </trkpt>
      <trkpt lat="45.13195" lon="5.42679">
        <ele>1204.8</ele>
        <time>2024-10-19T12:26:27.000Z</time>
      </trkpt>
      <trkpt lat="45.13202" lon="5.42689">
        <ele>1205.2</ele>
        <time>2024-10-19T12:26:36.000Z</time>
      </trkpt>
      <trkpt lat="45.13209" lon="5.42698">
        <ele>1205.4</ele>
        <time>2024-10-19T12:26:45.000Z</time>
      </trkpt>
      <trkpt lat="45.13217" lon="5.42705">
        <ele>1206</ele>
        <time>2024-10-19T12:26:54.000Z</time>
      </trkpt>
      <trkpt lat="45.13224" lon="5.42713">
        <ele>1206.4</ele>
        <time>2024-10-19T12:27:02.000Z</time>
      </trkpt>
      <trkpt lat="45.1323" lon="5.42725">
        <ele>1206.9</ele>
        <time>2024-10-19T12:27:11.000Z</time>
      </trkpt>
      <trkpt lat="45.13237" lon="5.42734">
        <ele>1206.8</ele>
        <time>2024-10-19T12:27:20.000Z</time>
      </trkpt>
      <trkpt lat="45.13243" lon="5.42745">
        <ele>1207.9</ele>
        <time>2024-10-19T12:27:29.000Z</time>
      </trkpt>
      <trkpt lat="45.13247" lon="5.42757">
        <ele>1207.9</ele>
        <time>2024-10-19T12:27:38.000Z</time>
      </trkpt>
      <trkpt lat="45.13251" lon="5.4277">
        <ele>1208.5</ele>
        <time>2024-10-19T12:27:48.000Z</time>
      </trkpt>
      <trkpt lat="45.13254" lon="5.42782">
        <ele>1208.9</ele>
        <time>2024-10-19T12:27:58.000Z</time>
      </trkpt>
      <trkpt lat="45.13256" lon="5.42795">
        <ele>1209</ele>
        <time>2024-10-19T12:28:07.000Z</time>
      </trkpt>
      <trkpt lat="45.1326" lon="5.42808">
        <ele>1210.1</ele>
        <time>2024-10-19T12:28:18.000Z</time>
      </trkpt>
      <trkpt lat="45.13267" lon="5.42818">
        <ele>1210.8</ele>
        <time>2024-10-19T12:28:30.000Z</time>
      </trkpt>
      <trkpt lat="45.13274" lon="5.42826">
        <ele>1211.6</ele>
        <time>2024-10-19T12:28:42.000Z</time>
      </trkpt>
      <trkpt lat="45.13283" lon="5.42829">
        <ele>1212.6</ele>
        <time>2024-10-19T12:28:54.000Z</time>
      </trkpt>
      <trkpt lat="45.13293" lon="5.42832">
        <ele>1213.8</ele>
        <time>2024-10-19T12:29:06.000Z</time>
      </trkpt>
      <trkpt lat="45.133" lon="5.42841">
        <ele>1215.3</ele>
        <time>2024-10-19T12:29:18.000Z</time>
      </trkpt>
      <trkpt lat="45.13308" lon="5.42848">
        <ele>1216.6</ele>
        <time>2024-10-19T12:29:30.000Z</time>
      </trkpt>
      <trkpt lat="45.13317" lon="5.42852">
        <ele>1218.4</ele>
        <time>2024-10-19T12:29:43.000Z</time>
      </trkpt>
      <trkpt lat="45.13327" lon="5.42853">
        <ele>1219.5</ele>
        <time>2024-10-19T12:29:58.000Z</time>
      </trkpt>
      <trkpt lat="45.13336" lon="5.42857">
        <ele>1220.2</ele>
        <time>2024-10-19T12:30:07.000Z</time>
      </trkpt>
      <trkpt lat="45.13345" lon="5.42862">
        <ele>1221.5</ele>
        <time>2024-10-19T12:30:20.000Z</time>
      </trkpt>
      <trkpt lat="45.13354" lon="5.42867">
        <ele>1222.5</ele>
        <time>2024-10-19T12:30:32.000Z</time>
      </trkpt>
      <trkpt lat="45.13364" lon="5.42868">
        <ele>1223.2</ele>
        <time>2024-10-19T12:30:41.000Z</time>
      </trkpt>
      <trkpt lat="45.13372" lon="5.42872">
        <ele>1223.9</ele>
        <time>2024-10-19T12:30:50.000Z</time>
      </trkpt>
      <trkpt lat="45.1338" lon="5.42878">
        <ele>1224.4</ele>
        <time>2024-10-19T12:30:59.000Z</time>
      </trkpt>
      <trkpt lat="45.13388" lon="5.42887">
        <ele>1224.8</ele>
        <time>2024-10-19T12:31:09.000Z</time>
      </trkpt>
      <trkpt lat="45.13397" lon="5.42892">
        <ele>1224.7</ele>
        <time>2024-10-19T12:31:19.000Z</time>
      </trkpt>
      <trkpt lat="45.13406" lon="5.42897">
        <ele>1224.5</ele>
        <time>2024-10-19T12:31:30.000Z</time>
      </trkpt>
      <trkpt lat="45.13413" lon="5.42904">
        <ele>1224.2</ele>
        <time>2024-10-19T12:31:40.000Z</time>
      </trkpt>
      <trkpt lat="45.13422" lon="5.42912">
        <ele>1223.9</ele>
        <time>2024-10-19T12:31:51.000Z</time>
      </trkpt>
      <trkpt lat="45.13431" lon="5.42916">
        <ele>1223.9</ele>
        <time>2024-10-19T12:32:02.000Z</time>
      </trkpt>
      <trkpt lat="45.13439" lon="5.42923">
        <ele>1224.1</ele>
        <time>2024-10-19T12:32:12.000Z</time>
      </trkpt>
      <trkpt lat="45.13447" lon="5.4293">
        <ele>1224.5</ele>
        <time>2024-10-19T12:32:22.000Z</time>
      </trkpt>
      <trkpt lat="45.13455" lon="5.42935">
        <ele>1225</ele>
        <time>2024-10-19T12:32:33.000Z</time>
      </trkpt>
      <trkpt lat="45.13463" lon="5.42943">
        <ele>1225.6</ele>
        <time>2024-10-19T12:32:43.000Z</time>
      </trkpt>
      <trkpt lat="45.13472" lon="5.4295">
        <ele>1226.5</ele>
        <time>2024-10-19T12:32:53.000Z</time>
      </trkpt>
      <trkpt lat="45.13481" lon="5.42951">
        <ele>1227</ele>
        <time>2024-10-19T12:33:02.000Z</time>
      </trkpt>
      <trkpt lat="45.1349" lon="5.42952">
        <ele>1227</ele>
        <time>2024-10-19T12:33:14.000Z</time>
      </trkpt>
      <trkpt lat="45.13499" lon="5.42955">
        <ele>1226.9</ele>
        <time>2024-10-19T12:33:27.000Z</time>
      </trkpt>
      <trkpt lat="45.13509" lon="5.42953">
        <ele>1226.7</ele>
        <time>2024-10-19T12:33:39.000Z</time>
      </trkpt>
      <trkpt lat="45.13518" lon="5.42954">
        <ele>1226.8</ele>
        <time>2024-10-19T12:33:47.000Z</time>
      </trkpt>
      <trkpt lat="45.13527" lon="5.42956">
        <ele>1227.4</ele>
        <time>2024-10-19T12:33:56.000Z</time>
      </trkpt>
      <trkpt lat="45.13536" lon="5.42958">
        <ele>1228.3</ele>
        <time>2024-10-19T12:34:05.000Z</time>
      </trkpt>
      <trkpt lat="45.13545" lon="5.4296">
        <ele>1228.7</ele>
        <time>2024-10-19T12:34:16.000Z</time>
      </trkpt>
      <trkpt lat="45.13555" lon="5.4296">
        <ele>1229.1</ele>
        <time>2024-10-19T12:34:27.000Z</time>
      </trkpt>
      <trkpt lat="45.13565" lon="5.4296">
        <ele>1229.4</ele>
        <time>2024-10-19T12:34:38.000Z</time>
      </trkpt>
      <trkpt lat="45.13574" lon="5.42962">
        <ele>1230.2</ele>
        <time>2024-10-19T12:34:48.000Z</time>
      </trkpt>
      <trkpt lat="45.13583" lon="5.42964">
        <ele>1230.8</ele>
        <time>2024-10-19T12:34:59.000Z</time>
      </trkpt>
      <trkpt lat="45.13593" lon="5.42967">
        <ele>1231.6</ele>
        <time>2024-10-19T12:35:11.000Z</time>
      </trkpt>
      <trkpt lat="45.13602" lon="5.42967">
        <ele>1232.4</ele>
        <time>2024-10-19T12:35:21.000Z</time>
      </trkpt>
      <trkpt lat="45.13612" lon="5.42967">
        <ele>1233</ele>
        <time>2024-10-19T12:35:36.000Z</time>
      </trkpt>
      <trkpt lat="45.13621" lon="5.42968">
        <ele>1233.8</ele>
        <time>2024-10-19T12:35:47.000Z</time>
      </trkpt>
      <trkpt lat="45.13631" lon="5.42969">
        <ele>1235.1</ele>
        <time>2024-10-19T12:36:01.000Z</time>
      </trkpt>
      <trkpt lat="45.1364" lon="5.42972">
        <ele>1235.8</ele>
        <time>2024-10-19T12:36:11.000Z</time>
      </trkpt>
      <trkpt lat="45.13649" lon="5.42974">
        <ele>1236.5</ele>
        <time>2024-10-19T12:36:22.000Z</time>
      </trkpt>
      <trkpt lat="45.13658" lon="5.42978">
        <ele>1237.5</ele>
        <time>2024-10-19T12:36:34.000Z</time>
      </trkpt>
      <trkpt lat="45.13667" lon="5.42982">
        <ele>1238.5</ele>
        <time>2024-10-19T12:36:45.000Z</time>
      </trkpt>
      <trkpt lat="45.13676" lon="5.42986">
        <ele>1238.9</ele>
        <time>2024-10-19T12:36:55.000Z</time>
      </trkpt>
      <trkpt lat="45.13685" lon="5.4299">
        <ele>1239.6</ele>
        <time>2024-10-19T12:37:05.000Z</time>
      </trkpt>
      <trkpt lat="45.13694" lon="5.42993">
        <ele>1240.2</ele>
        <time>2024-10-19T12:37:28.000Z</time>
      </trkpt>
      <trkpt lat="45.13702" lon="5.42997">
        <ele>1240.6</ele>
        <time>2024-10-19T12:37:42.000Z</time>
      </trkpt>
      <trkpt lat="45.13709" lon="5.43008">
        <ele>1240.9</ele>
        <time>2024-10-19T12:37:55.000Z</time>
      </trkpt>
      <trkpt lat="45.13715" lon="5.43017">
        <ele>1241.6</ele>
        <time>2024-10-19T12:38:06.000Z</time>
      </trkpt>
      <trkpt lat="45.13719" lon="5.43029">
        <ele>1242.3</ele>
        <time>2024-10-19T12:38:17.000Z</time>
      </trkpt>
      <trkpt lat="45.13721" lon="5.43042">
        <ele>1243.3</ele>
        <time>2024-10-19T12:38:28.000Z</time>
      </trkpt>
      <trkpt lat="45.13719" lon="5.43055">
        <ele>1244.9</ele>
        <time>2024-10-19T12:38:41.000Z</time>
      </trkpt>
      <trkpt lat="45.13719" lon="5.43069">
        <ele>1246.6</ele>
        <time>2024-10-19T12:38:55.000Z</time>
      </trkpt>
      <trkpt lat="45.13722" lon="5.4308">
        <ele>1247.7</ele>
        <time>2024-10-19T12:39:09.000Z</time>
      </trkpt>
      <trkpt lat="45.13727" lon="5.43091">
        <ele>1248.5</ele>
        <time>2024-10-19T12:39:24.000Z</time>
      </trkpt>
      <trkpt lat="45.13733" lon="5.43101">
        <ele>1249.1</ele>
        <time>2024-10-19T12:39:39.000Z</time>
      </trkpt>
      <trkpt lat="45.13729" lon="5.43089">
        <ele>1248.7</ele>
        <time>2024-10-19T12:41:05.000Z</time>
      </trkpt>
      <trkpt lat="45.13722" lon="5.4308">
        <ele>1247.9</ele>
        <time>2024-10-19T12:41:16.000Z</time>
      </trkpt>
      <trkpt lat="45.13713" lon="5.43079">
        <ele>1247.8</ele>
        <time>2024-10-19T12:42:03.000Z</time>
      </trkpt>
      <trkpt lat="45.13705" lon="5.43085">
        <ele>1248.8</ele>
        <time>2024-10-19T12:42:24.000Z</time>
      </trkpt>
      <trkpt lat="45.13697" lon="5.43091">
        <ele>1250.3</ele>
        <time>2024-10-19T12:42:41.000Z</time>
      </trkpt>
      <trkpt lat="45.13689" lon="5.43097">
        <ele>1251.9</ele>
        <time>2024-10-19T12:43:00.000Z</time>
      </trkpt>
      <trkpt lat="45.1368" lon="5.43101">
        <ele>1253.9</ele>
        <time>2024-10-19T12:43:15.000Z</time>
      </trkpt>
      <trkpt lat="45.13671" lon="5.43104">
        <ele>1255.3</ele>
        <time>2024-10-19T12:43:28.000Z</time>
      </trkpt>
      <trkpt lat="45.13662" lon="5.43106">
        <ele>1256.3</ele>
        <time>2024-10-19T12:43:39.000Z</time>
      </trkpt>
      <trkpt lat="45.13653" lon="5.43107">
        <ele>1256.9</ele>
        <time>2024-10-19T12:43:49.000Z</time>
      </trkpt>
      <trkpt lat="45.13643" lon="5.43104">
        <ele>1257.3</ele>
        <time>2024-10-19T12:44:01.000Z</time>
      </trkpt>
      <trkpt lat="45.13634" lon="5.43101">
        <ele>1257.2</ele>
        <time>2024-10-19T12:44:11.000Z</time>
      </trkpt>
      <trkpt lat="45.13625" lon="5.43099">
        <ele>1256.5</ele>
        <time>2024-10-19T12:44:21.000Z</time>
      </trkpt>
      <trkpt lat="45.13616" lon="5.43093">
        <ele>1255.8</ele>
        <time>2024-10-19T12:44:30.000Z</time>
      </trkpt>
      <trkpt lat="45.13607" lon="5.43093">
        <ele>1255.3</ele>
        <time>2024-10-19T12:44:40.000Z</time>
      </trkpt>
      <trkpt lat="45.13597" lon="5.43091">
        <ele>1255.1</ele>
        <time>2024-10-19T12:44:51.000Z</time>
      </trkpt>
      <trkpt lat="45.13588" lon="5.43093">
        <ele>1255.1</ele>
        <time>2024-10-19T12:45:01.000Z</time>
      </trkpt>
      <trkpt lat="45.13579" lon="5.43097">
        <ele>1254.8</ele>
        <time>2024-10-19T12:45:11.000Z</time>
      </trkpt>
      <trkpt lat="45.13571" lon="5.43102">
        <ele>1255.1</ele>
        <time>2024-10-19T12:45:30.000Z</time>
      </trkpt>
      <trkpt lat="45.13562" lon="5.43107">
        <ele>1255.5</ele>
        <time>2024-10-19T12:45:48.000Z</time>
      </trkpt>
      <trkpt lat="45.13553" lon="5.43108">
        <ele>1255.1</ele>
        <time>2024-10-19T12:46:12.000Z</time>
      </trkpt>
      <trkpt lat="45.13544" lon="5.43106">
        <ele>1254.2</ele>
        <time>2024-10-19T12:46:22.000Z</time>
      </trkpt>
      <trkpt lat="45.13535" lon="5.43108">
        <ele>1253.4</ele>
        <time>2024-10-19T12:46:33.000Z</time>
      </trkpt>
      <trkpt lat="45.13526" lon="5.43111">
        <ele>1253.5</ele>
        <time>2024-10-19T12:46:45.000Z</time>
      </trkpt>
      <trkpt lat="45.13517" lon="5.43117">
        <ele>1253.2</ele>
        <time>2024-10-19T12:46:59.000Z</time>
      </trkpt>
      <trkpt lat="45.13508" lon="5.4312">
        <ele>1252.7</ele>
        <time>2024-10-19T12:47:10.000Z</time>
      </trkpt>
      <trkpt lat="45.13498" lon="5.43124">
        <ele>1252</ele>
        <time>2024-10-19T12:47:19.000Z</time>
      </trkpt>
      <trkpt lat="45.1349" lon="5.43129">
        <ele>1251.7</ele>
        <time>2024-10-19T12:47:27.000Z</time>
      </trkpt>
      <trkpt lat="45.13482" lon="5.43134">
        <ele>1251.1</ele>
        <time>2024-10-19T12:47:38.000Z</time>
      </trkpt>
      <trkpt lat="45.13473" lon="5.43136">
        <ele>1250.4</ele>
        <time>2024-10-19T12:47:52.000Z</time>
      </trkpt>
      <trkpt lat="45.13463" lon="5.43136">
        <ele>1249.7</ele>
        <time>2024-10-19T12:48:04.000Z</time>
      </trkpt>
      <trkpt lat="45.13454" lon="5.43135">
        <ele>1249</ele>
        <time>2024-10-19T12:48:30.000Z</time>
      </trkpt>
      <trkpt lat="45.13452" lon="5.43147">
        <ele>1248</ele>
        <time>2024-10-19T12:49:17.000Z</time>
      </trkpt>
      <trkpt lat="45.13446" lon="5.43158">
        <ele>1248.5</ele>
        <time>2024-10-19T12:49:28.000Z</time>
      </trkpt>
      <trkpt lat="45.13439" lon="5.43167">
        <ele>1249.7</ele>
        <time>2024-10-19T12:49:40.000Z</time>
      </trkpt>
      <trkpt lat="45.13438" lon="5.4318">
        <ele>1250.6</ele>
        <time>2024-10-19T12:49:55.000Z</time>
      </trkpt>
      <trkpt lat="45.13438" lon="5.43167">
        <ele>1250.3</ele>
        <time>2024-10-19T12:50:18.000Z</time>
      </trkpt>
      <trkpt lat="45.13444" lon="5.43156">
        <ele>1249.5</ele>
        <time>2024-10-19T12:50:29.000Z</time>
      </trkpt>
      <trkpt lat="45.13449" lon="5.43146">
        <ele>1248.6</ele>
        <time>2024-10-19T12:50:41.000Z</time>
      </trkpt>
      <trkpt lat="45.1344" lon="5.4314">
        <ele>1247.4</ele>
        <time>2024-10-19T12:50:57.000Z</time>
      </trkpt>
      <trkpt lat="45.13431" lon="5.43141">
        <ele>1246.4</ele>
        <time>2024-10-19T12:51:07.000Z</time>
      </trkpt>
      <trkpt lat="45.13421" lon="5.43141">
        <ele>1245.9</ele>
        <time>2024-10-19T12:51:18.000Z</time>
      </trkpt>
      <trkpt lat="45.13412" lon="5.4314">
        <ele>1245.5</ele>
        <time>2024-10-19T12:51:29.000Z</time>
      </trkpt>
      <trkpt lat="45.13403" lon="5.43144">
        <ele>1245.6</ele>
        <time>2024-10-19T12:51:44.000Z</time>
      </trkpt>
      <trkpt lat="45.13394" lon="5.43145">
        <ele>1246.4</ele>
        <time>2024-10-19T12:51:54.000Z</time>
      </trkpt>
      <trkpt lat="45.13385" lon="5.43146">
        <ele>1246.7</ele>
        <time>2024-10-19T12:52:06.000Z</time>
      </trkpt>
      <trkpt lat="45.13376" lon="5.43147">
        <ele>1247.6</ele>
        <time>2024-10-19T12:52:21.000Z</time>
      </trkpt>
      <trkpt lat="45.13366" lon="5.43147">
        <ele>1248.8</ele>
        <time>2024-10-19T12:52:34.000Z</time>
      </trkpt>
      <trkpt lat="45.13357" lon="5.43146">
        <ele>1249.4</ele>
        <time>2024-10-19T12:52:45.000Z</time>
      </trkpt>
      <trkpt lat="45.13347" lon="5.43145">
        <ele>1250</ele>
        <time>2024-10-19T12:52:57.000Z</time>
      </trkpt>
      <trkpt lat="45.13338" lon="5.43146">
        <ele>1250.6</ele>
        <time>2024-10-19T12:53:09.000Z</time>
      </trkpt>
      <trkpt lat="45.13329" lon="5.43146">
        <ele>1251.6</ele>
        <time>2024-10-19T12:53:19.000Z</time>
      </trkpt>
      <trkpt lat="45.13319" lon="5.43147">
        <ele>1251.5</ele>
        <time>2024-10-19T12:53:39.000Z</time>
      </trkpt>
      <trkpt lat="45.1331" lon="5.43147">
        <ele>1252</ele>
        <time>2024-10-19T12:53:48.000Z</time>
      </trkpt>
      <trkpt lat="45.13301" lon="5.43146">
        <ele>1252.2</ele>
        <time>2024-10-19T12:53:58.000Z</time>
      </trkpt>
      <trkpt lat="45.13291" lon="5.43146">
        <ele>1252</ele>
        <time>2024-10-19T12:54:08.000Z</time>
      </trkpt>
      <trkpt lat="45.13281" lon="5.43144">
        <ele>1251.9</ele>
        <time>2024-10-19T12:54:18.000Z</time>
      </trkpt>
      <trkpt lat="45.13272" lon="5.43139">
        <ele>1251.6</ele>
        <time>2024-10-19T12:54:28.000Z</time>
      </trkpt>
      <trkpt lat="45.13262" lon="5.4314">
        <ele>1251.4</ele>
        <time>2024-10-19T12:54:38.000Z</time>
      </trkpt>
      <trkpt lat="45.13253" lon="5.4314">
        <ele>1251.6</ele>
        <time>2024-10-19T12:54:48.000Z</time>
      </trkpt>
      <trkpt lat="45.13243" lon="5.4314">
        <ele>1251.4</ele>
        <time>2024-10-19T12:54:57.000Z</time>
      </trkpt>
      <trkpt lat="45.13234" lon="5.43141">
        <ele>1251.2</ele>
        <time>2024-10-19T12:55:08.000Z</time>
      </trkpt>
      <trkpt lat="45.13225" lon="5.43143">
        <ele>1251.4</ele>
        <time>2024-10-19T12:55:18.000Z</time>
      </trkpt>
      <trkpt lat="45.13215" lon="5.43145">
        <ele>1251.7</ele>
        <time>2024-10-19T12:55:27.000Z</time>
      </trkpt>
      <trkpt lat="45.13206" lon="5.43147">
        <ele>1251.8</ele>
        <time>2024-10-19T12:55:37.000Z</time>
      </trkpt>
      <trkpt lat="45.13199" lon="5.43156">
        <ele>1251.8</ele>
        <time>2024-10-19T12:55:48.000Z</time>
      </trkpt>
      <trkpt lat="45.13193" lon="5.43165">
        <ele>1252.3</ele>
        <time>2024-10-19T12:55:57.000Z</time>
      </trkpt>
      <trkpt lat="45.13186" lon="5.43175">
        <ele>1253.3</ele>
        <time>2024-10-19T12:56:08.000Z</time>
      </trkpt>
      <trkpt lat="45.1318" lon="5.43184">
        <ele>1254.6</ele>
        <time>2024-10-19T12:56:18.000Z</time>
      </trkpt>
      <trkpt lat="45.13174" lon="5.43195">
        <ele>1255.8</ele>
        <time>2024-10-19T12:56:31.000Z</time>
      </trkpt>
      <trkpt lat="45.13168" lon="5.43205">
        <ele>1256.9</ele>
        <time>2024-10-19T12:56:44.000Z</time>
      </trkpt>
      <trkpt lat="45.13163" lon="5.43216">
        <ele>1257.9</ele>
        <time>2024-10-19T12:56:53.000Z</time>
      </trkpt>
      <trkpt lat="45.13157" lon="5.43227">
        <ele>1259.1</ele>
        <time>2024-10-19T12:57:03.000Z</time>
      </trkpt>
      <trkpt lat="45.13152" lon="5.43239">
        <ele>1260.1</ele>
        <time>2024-10-19T12:57:14.000Z</time>
      </trkpt>
      <trkpt lat="45.13146" lon="5.43249">
        <ele>1261.3</ele>
        <time>2024-10-19T12:57:26.000Z</time>
      </trkpt>
      <trkpt lat="45.1314" lon="5.4326">
        <ele>1262.6</ele>
        <time>2024-10-19T12:57:37.000Z</time>
      </trkpt>
      <trkpt lat="45.13135" lon="5.43271">
        <ele>1263.7</ele>
        <time>2024-10-19T12:57:48.000Z</time>
      </trkpt>
      <trkpt lat="45.13131" lon="5.43283">
        <ele>1264.6</ele>
        <time>2024-10-19T12:58:00.000Z</time>
      </trkpt>
      <trkpt lat="45.13128" lon="5.43295">
        <ele>1265.5</ele>
        <time>2024-10-19T12:58:12.000Z</time>
      </trkpt>
      <trkpt lat="45.13123" lon="5.43306">
        <ele>1266.3</ele>
        <time>2024-10-19T12:58:21.000Z</time>
      </trkpt>
      <trkpt lat="45.13117" lon="5.43317">
        <ele>1267.5</ele>
        <time>2024-10-19T12:58:33.000Z</time>
      </trkpt>
      <trkpt lat="45.13112" lon="5.43327">
        <ele>1268.6</ele>
        <time>2024-10-19T12:58:44.000Z</time>
      </trkpt>
      <trkpt lat="45.13109" lon="5.4334">
        <ele>1270.4</ele>
        <time>2024-10-19T12:58:55.000Z</time>
      </trkpt>
      <trkpt lat="45.13106" lon="5.43352">
        <ele>1272.3</ele>
        <time>2024-10-19T12:59:10.000Z</time>
      </trkpt>
      <trkpt lat="45.13101" lon="5.43363">
        <ele>1273.9</ele>
        <time>2024-10-19T12:59:34.000Z</time>
      </trkpt>
      <trkpt lat="45.13095" lon="5.43373">
        <ele>1275.5</ele>
        <time>2024-10-19T12:59:49.000Z</time>
      </trkpt>
      <trkpt lat="45.13086" lon="5.43375">
        <ele>1276.9</ele>
        <time>2024-10-19T13:00:03.000Z</time>
      </trkpt>
      <trkpt lat="45.13078" lon="5.43382">
        <ele>1278.8</ele>
        <time>2024-10-19T13:00:18.000Z</time>
      </trkpt>
      <trkpt lat="45.13078" lon="5.43395">
        <ele>1280.9</ele>
        <time>2024-10-19T13:00:39.000Z</time>
      </trkpt>
      <trkpt lat="45.1308" lon="5.43408">
        <ele>1283.3</ele>
        <time>2024-10-19T13:02:05.000Z</time>
      </trkpt>
      <trkpt lat="45.1308" lon="5.43421">
        <ele>1285.7</ele>
        <time>2024-10-19T13:02:22.000Z</time>
      </trkpt>
      <trkpt lat="45.13084" lon="5.43433">
        <ele>1287.9</ele>
        <time>2024-10-19T13:02:38.000Z</time>
      </trkpt>
      <trkpt lat="45.1308" lon="5.43444">
        <ele>1290</ele>
        <time>2024-10-19T13:02:54.000Z</time>
      </trkpt>
      <trkpt lat="45.13075" lon="5.43455">
        <ele>1290.8</ele>
        <time>2024-10-19T13:03:06.000Z</time>
      </trkpt>
      <trkpt lat="45.13069" lon="5.43465">
        <ele>1291.3</ele>
        <time>2024-10-19T13:03:15.000Z</time>
      </trkpt>
      <trkpt lat="45.13073" lon="5.43477">
        <ele>1291.7</ele>
        <time>2024-10-19T13:03:25.000Z</time>
      </trkpt>
      <trkpt lat="45.13073" lon="5.43487">
        <ele>1293.1</ele>
        <time>2024-10-19T13:05:07.000Z</time>
      </trkpt>
    </trkseg>
  </trk>
</gpx>